<?xml version="1.0" encoding="UTF-8" standalone="no" ?>
<gpx xmlns="http://www.topografix.com/GPX/1/1" xmlns:xsi="http://www.w3.org/2001/XMLSchema-instance" xsi:schemaLocation="http://www.topografix.com/GPX/1/1 http://www.topografix.com/GPX/1/1/gpx.xsd" version="1.1" creator="VisuGPX - https://www.visugpx.com">
  <metadata>
    <name>Joyeux Randonneurs à Ribérac (2)</name>
    <desc><![CDATA[Randonnée accessible à tous. Il existe pratiquement toujours des possibilités  pour raccourcir le circuit à environ  6km. ]]></desc>
  </metadata>
  <trk>
    <name><![CDATA[Tracé 27 sept. 2016 13:51:53  Riberac avec tocane]]></name>
    <trkseg>
      <trkpt lat="45.24806" lon="0.33832">
        <ele>52.005020269153</ele>
        <time>2016-09-27T11:52:07Z</time>
      </trkpt>
      <trkpt lat="45.24803" lon="0.33835">
        <ele>66.005089119352</ele>
        <time>2016-09-27T11:53:04Z</time>
      </trkpt>
      <trkpt lat="45.24803" lon="0.33835">
        <ele>66.005089119352</ele>
        <time>2016-09-27T11:53:05Z</time>
      </trkpt>
      <trkpt lat="45.248" lon="0.33826">
        <ele>72.00518213641</ele>
        <time>2016-09-27T12:01:47Z</time>
      </trkpt>
      <trkpt lat="45.24808" lon="0.33824">
        <ele>68.004962139908</ele>
        <time>2016-09-27T12:02:12Z</time>
      </trkpt>
      <trkpt lat="45.24812" lon="0.33813">
        <ele>68.004868819353</ele>
        <time>2016-09-27T12:02:35Z</time>
      </trkpt>
      <trkpt lat="45.24817" lon="0.33802">
        <ele>69.004745361507</ele>
        <time>2016-09-27T12:02:59Z</time>
      </trkpt>
      <trkpt lat="45.24826" lon="0.33787">
        <ele>72.00450912358</ele>
        <time>2016-09-27T12:03:13Z</time>
      </trkpt>
      <trkpt lat="45.24823" lon="0.33776">
        <ele>68.004594213343</ele>
        <time>2016-09-27T12:03:28Z</time>
      </trkpt>
      <trkpt lat="45.2483" lon="0.33768">
        <ele>65.004420367984</ele>
        <time>2016-09-27T12:04:19Z</time>
      </trkpt>
      <trkpt lat="45.24843" lon="0.33764">
        <ele>64.004074443222</ele>
        <time>2016-09-27T12:04:34Z</time>
      </trkpt>
      <trkpt lat="45.24851" lon="0.33746">
        <ele>63.003886885214</ele>
        <time>2016-09-27T12:04:47Z</time>
      </trkpt>
      <trkpt lat="45.24846" lon="0.33719">
        <ele>67.004009826027</ele>
        <time>2016-09-27T12:05:02Z</time>
      </trkpt>
      <trkpt lat="45.24834" lon="0.33708">
        <ele>68.004320051154</ele>
        <time>2016-09-27T12:05:16Z</time>
      </trkpt>
      <trkpt lat="45.24832" lon="0.33689">
        <ele>71.004392415962</ele>
        <time>2016-09-27T12:05:31Z</time>
      </trkpt>
      <trkpt lat="45.2483" lon="0.33664">
        <ele>75.004445640118</ele>
        <time>2016-09-27T12:05:45Z</time>
      </trkpt>
      <trkpt lat="45.24828" lon="0.33624">
        <ele>70.004512755436</ele>
        <time>2016-09-27T12:05:59Z</time>
      </trkpt>
      <trkpt lat="45.24825" lon="0.33598">
        <ele>73.004586955936</ele>
        <time>2016-09-27T12:06:14Z</time>
      </trkpt>
      <trkpt lat="45.24825" lon="0.33579">
        <ele>75.004591090262</ele>
        <time>2016-09-27T12:06:28Z</time>
      </trkpt>
      <trkpt lat="45.24824" lon="0.33555">
        <ele>76.004635304413</ele>
        <time>2016-09-27T12:06:43Z</time>
      </trkpt>
      <trkpt lat="45.24821" lon="0.33534">
        <ele>79.00471748155</ele>
        <time>2016-09-27T12:06:57Z</time>
      </trkpt>
      <trkpt lat="45.24817" lon="0.33514">
        <ele>79.004832245905</ele>
        <time>2016-09-27T12:07:11Z</time>
      </trkpt>
      <trkpt lat="45.24812" lon="0.3349">
        <ele>79.004968989779</ele>
        <time>2016-09-27T12:07:26Z</time>
      </trkpt>
      <trkpt lat="45.24808" lon="0.3347">
        <ele>83.005091607415</ele>
        <time>2016-09-27T12:07:40Z</time>
      </trkpt>
      <trkpt lat="45.24806" lon="0.33449">
        <ele>85.005132814239</ele>
        <time>2016-09-27T12:07:54Z</time>
      </trkpt>
      <trkpt lat="45.24804" lon="0.3343">
        <ele>89.005193103314</ele>
        <time>2016-09-27T12:08:08Z</time>
      </trkpt>
      <trkpt lat="45.24803" lon="0.33407">
        <ele>89.005238402007</ele>
        <time>2016-09-27T12:08:23Z</time>
      </trkpt>
      <trkpt lat="45.24799" lon="0.33386">
        <ele>93.005335373879</ele>
        <time>2016-09-27T12:08:37Z</time>
      </trkpt>
      <trkpt lat="45.24796" lon="0.33367">
        <ele>95.005431165522</ele>
        <time>2016-09-27T12:08:52Z</time>
      </trkpt>
      <trkpt lat="45.24791" lon="0.33347">
        <ele>99.005567277677</ele>
        <time>2016-09-27T12:09:06Z</time>
      </trkpt>
      <trkpt lat="45.24781" lon="0.33329">
        <ele>99.005849988323</ele>
        <time>2016-09-27T12:09:20Z</time>
      </trkpt>
      <trkpt lat="45.24769" lon="0.33311">
        <ele>99.006182386668</ele>
        <time>2016-09-27T12:09:34Z</time>
      </trkpt>
      <trkpt lat="45.24757" lon="0.33295">
        <ele>98.006486372786</ele>
        <time>2016-09-27T12:09:48Z</time>
      </trkpt>
      <trkpt lat="45.2475" lon="0.33283">
        <ele>102.00668852834</ele>
        <time>2016-09-27T12:10:02Z</time>
      </trkpt>
      <trkpt lat="45.2475" lon="0.33266">
        <ele>99.006694452123</ele>
        <time>2016-09-27T12:10:17Z</time>
      </trkpt>
      <trkpt lat="45.24758" lon="0.33255">
        <ele>101.00648591363</ele>
        <time>2016-09-27T12:10:32Z</time>
      </trkpt>
      <trkpt lat="45.24768" lon="0.33247">
        <ele>103.00621050497</ele>
        <time>2016-09-27T12:10:46Z</time>
      </trkpt>
      <trkpt lat="45.2478" lon="0.33232">
        <ele>105.00589974188</ele>
        <time>2016-09-27T12:11:00Z</time>
      </trkpt>
      <trkpt lat="45.24793" lon="0.33221">
        <ele>108.00554655433</ele>
        <time>2016-09-27T12:11:15Z</time>
      </trkpt>
      <trkpt lat="45.24808" lon="0.33216">
        <ele>111.00514963643</ele>
        <time>2016-09-27T12:11:30Z</time>
      </trkpt>
      <trkpt lat="45.24825" lon="0.33214">
        <ele>110.00470706232</ele>
        <time>2016-09-27T12:11:44Z</time>
      </trkpt>
      <trkpt lat="45.2484" lon="0.33209">
        <ele>110.00429918533</ele>
        <time>2016-09-27T12:11:59Z</time>
      </trkpt>
      <trkpt lat="45.24846" lon="0.33192">
        <ele>108.00413255345</ele>
        <time>2016-09-27T12:12:13Z</time>
      </trkpt>
      <trkpt lat="45.24849" lon="0.33175">
        <ele>110.00406984315</ele>
        <time>2016-09-27T12:12:27Z</time>
      </trkpt>
      <trkpt lat="45.24851" lon="0.33155">
        <ele>112.00400577833</ele>
        <time>2016-09-27T12:12:42Z</time>
      </trkpt>
      <trkpt lat="45.24854" lon="0.33136">
        <ele>113.00393974916</ele>
        <time>2016-09-27T12:12:57Z</time>
      </trkpt>
      <trkpt lat="45.24856" lon="0.33115">
        <ele>116.0038947489</ele>
        <time>2016-09-27T12:13:11Z</time>
      </trkpt>
      <trkpt lat="45.24859" lon="0.33095">
        <ele>117.0038252868</ele>
        <time>2016-09-27T12:13:25Z</time>
      </trkpt>
      <trkpt lat="45.24861" lon="0.33071">
        <ele>118.00375851464</ele>
        <time>2016-09-27T12:13:40Z</time>
      </trkpt>
      <trkpt lat="45.24864" lon="0.33059">
        <ele>116.00369122779</ele>
        <time>2016-09-27T12:14:01Z</time>
      </trkpt>
      <trkpt lat="45.24858" lon="0.33053">
        <ele>114.00384566713</ele>
        <time>2016-09-27T12:14:50Z</time>
      </trkpt>
      <trkpt lat="45.24844" lon="0.33039">
        <ele>118.00424470496</ele>
        <time>2016-09-27T12:15:05Z</time>
      </trkpt>
      <trkpt lat="45.24832" lon="0.33027">
        <ele>123.00455603088</ele>
        <time>2016-09-27T12:15:19Z</time>
      </trkpt>
      <trkpt lat="45.24813" lon="0.33017">
        <ele>121.00507421137</ele>
        <time>2016-09-27T12:15:34Z</time>
      </trkpt>
      <trkpt lat="45.24795" lon="0.33013">
        <ele>119.00556368866</ele>
        <time>2016-09-27T12:15:49Z</time>
      </trkpt>
      <trkpt lat="45.24783" lon="0.33005">
        <ele>123.00590513062</ele>
        <time>2016-09-27T12:16:03Z</time>
      </trkpt>
      <trkpt lat="45.24766" lon="0.33001">
        <ele>122.0063764728</ele>
        <time>2016-09-27T12:16:18Z</time>
      </trkpt>
      <trkpt lat="45.24744" lon="0.32998">
        <ele>118.00695875941</ele>
        <time>2016-09-27T12:16:32Z</time>
      </trkpt>
      <trkpt lat="45.24725" lon="0.32996">
        <ele>118.00747978167</ele>
        <time>2016-09-27T12:16:46Z</time>
      </trkpt>
      <trkpt lat="45.24718" lon="0.32978">
        <ele>117.00767224141</ele>
        <time>2016-09-27T12:17:01Z</time>
      </trkpt>
      <trkpt lat="45.24717" lon="0.32953">
        <ele>117.00770966025</ele>
        <time>2016-09-27T12:17:16Z</time>
      </trkpt>
      <trkpt lat="45.24719" lon="0.32935">
        <ele>116.00767702477</ele>
        <time>2016-09-27T12:17:30Z</time>
      </trkpt>
      <trkpt lat="45.2473" lon="0.32926">
        <ele>117.0073824866</ele>
        <time>2016-09-27T12:17:44Z</time>
      </trkpt>
      <trkpt lat="45.24745" lon="0.3292">
        <ele>117.00697898856</ele>
        <time>2016-09-27T12:17:58Z</time>
      </trkpt>
      <trkpt lat="45.24753" lon="0.32912">
        <ele>118.00674157532</ele>
        <time>2016-09-27T12:18:12Z</time>
      </trkpt>
      <trkpt lat="45.24768" lon="0.329">
        <ele>115.00634696119</ele>
        <time>2016-09-27T12:18:26Z</time>
      </trkpt>
      <trkpt lat="45.24778" lon="0.32881">
        <ele>116.0060729169</ele>
        <time>2016-09-27T12:18:41Z</time>
      </trkpt>
      <trkpt lat="45.24786" lon="0.32867">
        <ele>119.00587084655</ele>
        <time>2016-09-27T12:18:56Z</time>
      </trkpt>
      <trkpt lat="45.24795" lon="0.32854">
        <ele>119.00562305331</ele>
        <time>2016-09-27T12:19:10Z</time>
      </trkpt>
      <trkpt lat="45.24805" lon="0.32841">
        <ele>121.0053661551</ele>
        <time>2016-09-27T12:19:24Z</time>
      </trkpt>
      <trkpt lat="45.24814" lon="0.32822">
        <ele>121.0051227536</ele>
        <time>2016-09-27T12:19:38Z</time>
      </trkpt>
      <trkpt lat="45.24822" lon="0.32804">
        <ele>119.00489962315</ele>
        <time>2016-09-27T12:19:52Z</time>
      </trkpt>
      <trkpt lat="45.24833" lon="0.32793">
        <ele>117.0045882368</ele>
        <time>2016-09-27T12:20:06Z</time>
      </trkpt>
      <trkpt lat="45.24845" lon="0.32775">
        <ele>117.00428347972</ele>
        <time>2016-09-27T12:20:21Z</time>
      </trkpt>
      <trkpt lat="45.24853" lon="0.32758">
        <ele>116.00406648605</ele>
        <time>2016-09-27T12:20:35Z</time>
      </trkpt>
      <trkpt lat="45.2486" lon="0.32747">
        <ele>116.00387980275</ele>
        <time>2016-09-27T12:20:49Z</time>
      </trkpt>
      <trkpt lat="45.24871" lon="0.32729">
        <ele>113.0035789726</ele>
        <time>2016-09-27T12:21:04Z</time>
      </trkpt>
      <trkpt lat="45.24887" lon="0.32718">
        <ele>112.00313837452</ele>
        <time>2016-09-27T12:21:18Z</time>
      </trkpt>
      <trkpt lat="45.24893" lon="0.32714">
        <ele>101.00296316223</ele>
        <time>2016-09-27T12:22:34Z</time>
      </trkpt>
      <trkpt lat="45.24907" lon="0.3271">
        <ele>105.00257081479</ele>
        <time>2016-09-27T12:22:49Z</time>
      </trkpt>
      <trkpt lat="45.24924" lon="0.32713">
        <ele>108.00211583321</ele>
        <time>2016-09-27T12:23:03Z</time>
      </trkpt>
      <trkpt lat="45.24934" lon="0.32717">
        <ele>111.0018261069</ele>
        <time>2016-09-27T12:23:17Z</time>
      </trkpt>
      <trkpt lat="45.24955" lon="0.32717">
        <ele>110.00123774413</ele>
        <time>2016-09-27T12:23:32Z</time>
      </trkpt>
      <trkpt lat="45.24972" lon="0.32713">
        <ele>109.00076855908</ele>
        <time>2016-09-27T12:23:46Z</time>
      </trkpt>
      <trkpt lat="45.24992" lon="0.32715">
        <ele>109.00023294538</ele>
        <time>2016-09-27T12:24:00Z</time>
      </trkpt>
      <trkpt lat="45.25009" lon="0.32714">
        <ele>110</ele>
        <time>2016-09-27T12:24:15Z</time>
      </trkpt>
      <trkpt lat="45.25029" lon="0.32717">
        <ele>104</ele>
        <time>2016-09-27T12:24:29Z</time>
      </trkpt>
      <trkpt lat="45.25042" lon="0.32703">
        <ele>105</ele>
        <time>2016-09-27T12:24:43Z</time>
      </trkpt>
      <trkpt lat="45.25056" lon="0.32684">
        <ele>107</ele>
        <time>2016-09-27T12:24:58Z</time>
      </trkpt>
      <trkpt lat="45.25065" lon="0.32666">
        <ele>107</ele>
        <time>2016-09-27T12:25:13Z</time>
      </trkpt>
      <trkpt lat="45.25072" lon="0.32647">
        <ele>101</ele>
        <time>2016-09-27T12:25:27Z</time>
      </trkpt>
      <trkpt lat="45.25079" lon="0.32624">
        <ele>100</ele>
        <time>2016-09-27T12:25:42Z</time>
      </trkpt>
      <trkpt lat="45.25085" lon="0.32599">
        <ele>100</ele>
        <time>2016-09-27T12:25:57Z</time>
      </trkpt>
      <trkpt lat="45.25092" lon="0.32576">
        <ele>96</ele>
        <time>2016-09-27T12:26:12Z</time>
      </trkpt>
      <trkpt lat="45.25095" lon="0.32559">
        <ele>94</ele>
        <time>2016-09-27T12:26:26Z</time>
      </trkpt>
      <trkpt lat="45.251" lon="0.32543">
        <ele>95</ele>
        <time>2016-09-27T12:26:40Z</time>
      </trkpt>
      <trkpt lat="45.25107" lon="0.32519">
        <ele>93</ele>
        <time>2016-09-27T12:26:55Z</time>
      </trkpt>
      <trkpt lat="45.25105" lon="0.32483">
        <ele>81</ele>
        <time>2016-09-27T12:27:09Z</time>
      </trkpt>
      <trkpt lat="45.25098" lon="0.32468">
        <ele>82</ele>
        <time>2016-09-27T12:27:23Z</time>
      </trkpt>
      <trkpt lat="45.25089" lon="0.3245">
        <ele>83</ele>
        <time>2016-09-27T12:27:37Z</time>
      </trkpt>
      <trkpt lat="45.25083" lon="0.32432">
        <ele>82</ele>
        <time>2016-09-27T12:27:51Z</time>
      </trkpt>
      <trkpt lat="45.25085" lon="0.32409">
        <ele>83</ele>
        <time>2016-09-27T12:28:05Z</time>
      </trkpt>
      <trkpt lat="45.25091" lon="0.32391">
        <ele>88</ele>
        <time>2016-09-27T12:28:20Z</time>
      </trkpt>
      <trkpt lat="45.25102" lon="0.32378">
        <ele>90</ele>
        <time>2016-09-27T12:28:34Z</time>
      </trkpt>
      <trkpt lat="45.25112" lon="0.32371">
        <ele>94</ele>
        <time>2016-09-27T12:28:48Z</time>
      </trkpt>
      <trkpt lat="45.25125" lon="0.32356">
        <ele>93</ele>
        <time>2016-09-27T12:29:03Z</time>
      </trkpt>
      <trkpt lat="45.25136" lon="0.32349">
        <ele>95</ele>
        <time>2016-09-27T12:29:17Z</time>
      </trkpt>
      <trkpt lat="45.25149" lon="0.32337">
        <ele>98</ele>
        <time>2016-09-27T12:29:31Z</time>
      </trkpt>
      <trkpt lat="45.2516" lon="0.32316">
        <ele>96</ele>
        <time>2016-09-27T12:29:46Z</time>
      </trkpt>
      <trkpt lat="45.25167" lon="0.32311">
        <ele>93</ele>
        <time>2016-09-27T12:30:17Z</time>
      </trkpt>
      <trkpt lat="45.25178" lon="0.32307">
        <ele>91</ele>
        <time>2016-09-27T12:30:32Z</time>
      </trkpt>
      <trkpt lat="45.25181" lon="0.3232">
        <ele>88</ele>
        <time>2016-09-27T12:30:46Z</time>
      </trkpt>
      <trkpt lat="45.2519" lon="0.32336">
        <ele>99</ele>
        <time>2016-09-27T12:31:00Z</time>
      </trkpt>
      <trkpt lat="45.252" lon="0.32355">
        <ele>95</ele>
        <time>2016-09-27T12:31:14Z</time>
      </trkpt>
      <trkpt lat="45.2521" lon="0.32371">
        <ele>91</ele>
        <time>2016-09-27T12:31:28Z</time>
      </trkpt>
      <trkpt lat="45.25222" lon="0.32391">
        <ele>93</ele>
        <time>2016-09-27T12:31:43Z</time>
      </trkpt>
      <trkpt lat="45.25242" lon="0.32397">
        <ele>89</ele>
        <time>2016-09-27T12:31:58Z</time>
      </trkpt>
      <trkpt lat="45.25259" lon="0.32395">
        <ele>90</ele>
        <time>2016-09-27T12:32:12Z</time>
      </trkpt>
      <trkpt lat="45.25271" lon="0.32395">
        <ele>93</ele>
        <time>2016-09-27T12:32:27Z</time>
      </trkpt>
      <trkpt lat="45.25283" lon="0.32388">
        <ele>97</ele>
        <time>2016-09-27T12:32:41Z</time>
      </trkpt>
      <trkpt lat="45.25301" lon="0.32367">
        <ele>92</ele>
        <time>2016-09-27T12:32:56Z</time>
      </trkpt>
      <trkpt lat="45.25315" lon="0.32351">
        <ele>88</ele>
        <time>2016-09-27T12:33:10Z</time>
      </trkpt>
      <trkpt lat="45.2533" lon="0.32345">
        <ele>88</ele>
        <time>2016-09-27T12:33:25Z</time>
      </trkpt>
      <trkpt lat="45.25347" lon="0.32349">
        <ele>85</ele>
        <time>2016-09-27T12:33:39Z</time>
      </trkpt>
      <trkpt lat="45.25364" lon="0.3235">
        <ele>86</ele>
        <time>2016-09-27T12:33:54Z</time>
      </trkpt>
      <trkpt lat="45.2538" lon="0.32351">
        <ele>85</ele>
        <time>2016-09-27T12:34:08Z</time>
      </trkpt>
      <trkpt lat="45.25395" lon="0.32348">
        <ele>85</ele>
        <time>2016-09-27T12:34:22Z</time>
      </trkpt>
      <trkpt lat="45.25413" lon="0.3234">
        <ele>82</ele>
        <time>2016-09-27T12:34:37Z</time>
      </trkpt>
      <trkpt lat="45.2543" lon="0.32344">
        <ele>79</ele>
        <time>2016-09-27T12:34:51Z</time>
      </trkpt>
      <trkpt lat="45.2544" lon="0.32361">
        <ele>81</ele>
        <time>2016-09-27T12:35:05Z</time>
      </trkpt>
      <trkpt lat="45.25448" lon="0.32368">
        <ele>85</ele>
        <time>2016-09-27T12:35:20Z</time>
      </trkpt>
      <trkpt lat="45.25459" lon="0.32398">
        <ele>85</ele>
        <time>2016-09-27T12:35:34Z</time>
      </trkpt>
      <trkpt lat="45.25471" lon="0.32417">
        <ele>80</ele>
        <time>2016-09-27T12:35:48Z</time>
      </trkpt>
      <trkpt lat="45.2548" lon="0.32437">
        <ele>81</ele>
        <time>2016-09-27T12:36:02Z</time>
      </trkpt>
      <trkpt lat="45.25492" lon="0.32453">
        <ele>82</ele>
        <time>2016-09-27T12:36:17Z</time>
      </trkpt>
      <trkpt lat="45.25503" lon="0.32459">
        <ele>79</ele>
        <time>2016-09-27T12:36:32Z</time>
      </trkpt>
      <trkpt lat="45.25516" lon="0.32488">
        <ele>79</ele>
        <time>2016-09-27T12:36:46Z</time>
      </trkpt>
      <trkpt lat="45.25525" lon="0.325">
        <ele>82</ele>
        <time>2016-09-27T12:37:00Z</time>
      </trkpt>
      <trkpt lat="45.25543" lon="0.32509">
        <ele>77</ele>
        <time>2016-09-27T12:37:15Z</time>
      </trkpt>
      <trkpt lat="45.2556" lon="0.3251">
        <ele>76</ele>
        <time>2016-09-27T12:37:30Z</time>
      </trkpt>
      <trkpt lat="45.25575" lon="0.32502">
        <ele>75</ele>
        <time>2016-09-27T12:37:44Z</time>
      </trkpt>
      <trkpt lat="45.25591" lon="0.325">
        <ele>76</ele>
        <time>2016-09-27T12:37:59Z</time>
      </trkpt>
      <trkpt lat="45.25605" lon="0.32497">
        <ele>75</ele>
        <time>2016-09-27T12:38:13Z</time>
      </trkpt>
      <trkpt lat="45.25616" lon="0.32484">
        <ele>73</ele>
        <time>2016-09-27T12:38:27Z</time>
      </trkpt>
      <trkpt lat="45.25631" lon="0.32474">
        <ele>69</ele>
        <time>2016-09-27T12:38:41Z</time>
      </trkpt>
      <trkpt lat="45.25639" lon="0.32474">
        <ele>71</ele>
        <time>2016-09-27T12:38:59Z</time>
      </trkpt>
      <trkpt lat="45.25659" lon="0.32449">
        <ele>60</ele>
        <time>2016-09-27T12:39:14Z</time>
      </trkpt>
      <trkpt lat="45.25659" lon="0.32423">
        <ele>56</ele>
        <time>2016-09-27T12:39:28Z</time>
      </trkpt>
      <trkpt lat="45.2566" lon="0.32402">
        <ele>53</ele>
        <time>2016-09-27T12:39:42Z</time>
      </trkpt>
      <trkpt lat="45.25658" lon="0.32379">
        <ele>56</ele>
        <time>2016-09-27T12:39:57Z</time>
      </trkpt>
      <trkpt lat="45.25658" lon="0.32356">
        <ele>54</ele>
        <time>2016-09-27T12:40:11Z</time>
      </trkpt>
      <trkpt lat="45.25657" lon="0.32341">
        <ele>57</ele>
        <time>2016-09-27T12:40:25Z</time>
      </trkpt>
      <trkpt lat="45.25652" lon="0.32305">
        <ele>57</ele>
        <time>2016-09-27T12:40:39Z</time>
      </trkpt>
      <trkpt lat="45.25652" lon="0.32293">
        <ele>55</ele>
        <time>2016-09-27T12:40:53Z</time>
      </trkpt>
      <trkpt lat="45.25651" lon="0.32279">
        <ele>62</ele>
        <time>2016-09-27T12:41:08Z</time>
      </trkpt>
      <trkpt lat="45.25647" lon="0.32236">
        <ele>54</ele>
        <time>2016-09-27T12:41:23Z</time>
      </trkpt>
      <trkpt lat="45.25644" lon="0.32209">
        <ele>57</ele>
        <time>2016-09-27T12:41:37Z</time>
      </trkpt>
      <trkpt lat="45.25642" lon="0.32186">
        <ele>58</ele>
        <time>2016-09-27T12:41:51Z</time>
      </trkpt>
      <trkpt lat="45.25641" lon="0.32172">
        <ele>62</ele>
        <time>2016-09-27T12:42:05Z</time>
      </trkpt>
      <trkpt lat="45.25636" lon="0.32145">
        <ele>61</ele>
        <time>2016-09-27T12:42:20Z</time>
      </trkpt>
      <trkpt lat="45.25634" lon="0.32116">
        <ele>59</ele>
        <time>2016-09-27T12:42:34Z</time>
      </trkpt>
      <trkpt lat="45.25631" lon="0.32087">
        <ele>56</ele>
        <time>2016-09-27T12:42:49Z</time>
      </trkpt>
      <trkpt lat="45.25628" lon="0.32059">
        <ele>58</ele>
        <time>2016-09-27T12:43:04Z</time>
      </trkpt>
      <trkpt lat="45.25625" lon="0.32035">
        <ele>55</ele>
        <time>2016-09-27T12:43:18Z</time>
      </trkpt>
      <trkpt lat="45.25623" lon="0.32012">
        <ele>55</ele>
        <time>2016-09-27T12:43:32Z</time>
      </trkpt>
      <trkpt lat="45.25621" lon="0.3199">
        <ele>56</ele>
        <time>2016-09-27T12:43:46Z</time>
      </trkpt>
      <trkpt lat="45.25619" lon="0.31966">
        <ele>57</ele>
        <time>2016-09-27T12:44:00Z</time>
      </trkpt>
      <trkpt lat="45.25616" lon="0.31943">
        <ele>56</ele>
        <time>2016-09-27T12:44:15Z</time>
      </trkpt>
      <trkpt lat="45.25616" lon="0.31919">
        <ele>55</ele>
        <time>2016-09-27T12:44:29Z</time>
      </trkpt>
      <trkpt lat="45.25614" lon="0.31906">
        <ele>56</ele>
        <time>2016-09-27T12:44:44Z</time>
      </trkpt>
      <trkpt lat="45.25616" lon="0.31877">
        <ele>58</ele>
        <time>2016-09-27T12:44:58Z</time>
      </trkpt>
      <trkpt lat="45.25618" lon="0.31853">
        <ele>58</ele>
        <time>2016-09-27T12:45:12Z</time>
      </trkpt>
      <trkpt lat="45.2562" lon="0.31824">
        <ele>59</ele>
        <time>2016-09-27T12:45:27Z</time>
      </trkpt>
      <trkpt lat="45.2562" lon="0.31807">
        <ele>62</ele>
        <time>2016-09-27T12:45:41Z</time>
      </trkpt>
      <trkpt lat="45.25617" lon="0.31795">
        <ele>57</ele>
        <time>2016-09-27T12:48:22Z</time>
      </trkpt>
      <trkpt lat="45.25621" lon="0.31785">
        <ele>56</ele>
        <time>2016-09-27T12:51:01Z</time>
      </trkpt>
      <trkpt lat="45.25627" lon="0.31777">
        <ele>59</ele>
        <time>2016-09-27T12:51:26Z</time>
      </trkpt>
      <trkpt lat="45.25639" lon="0.3177">
        <ele>58</ele>
        <time>2016-09-27T12:51:40Z</time>
      </trkpt>
      <trkpt lat="45.25649" lon="0.31765">
        <ele>56</ele>
        <time>2016-09-27T12:51:54Z</time>
      </trkpt>
      <trkpt lat="45.25662" lon="0.31756">
        <ele>55</ele>
        <time>2016-09-27T12:52:09Z</time>
      </trkpt>
      <trkpt lat="45.25676" lon="0.31748">
        <ele>58</ele>
        <time>2016-09-27T12:52:24Z</time>
      </trkpt>
      <trkpt lat="45.2569" lon="0.3174">
        <ele>59</ele>
        <time>2016-09-27T12:52:38Z</time>
      </trkpt>
      <trkpt lat="45.25706" lon="0.31731">
        <ele>58</ele>
        <time>2016-09-27T12:52:53Z</time>
      </trkpt>
      <trkpt lat="45.25723" lon="0.31721">
        <ele>57</ele>
        <time>2016-09-27T12:53:08Z</time>
      </trkpt>
      <trkpt lat="45.25739" lon="0.31711">
        <ele>58</ele>
        <time>2016-09-27T12:53:22Z</time>
      </trkpt>
      <trkpt lat="45.25756" lon="0.31701">
        <ele>55</ele>
        <time>2016-09-27T12:53:37Z</time>
      </trkpt>
      <trkpt lat="45.25775" lon="0.31694">
        <ele>55</ele>
        <time>2016-09-27T12:53:52Z</time>
      </trkpt>
      <trkpt lat="45.2579" lon="0.31686">
        <ele>53</ele>
        <time>2016-09-27T12:54:07Z</time>
      </trkpt>
      <trkpt lat="45.258" lon="0.31673">
        <ele>53</ele>
        <time>2016-09-27T12:54:21Z</time>
      </trkpt>
      <trkpt lat="45.25813" lon="0.31654">
        <ele>55</ele>
        <time>2016-09-27T12:54:36Z</time>
      </trkpt>
      <trkpt lat="45.25824" lon="0.31637">
        <ele>60</ele>
        <time>2016-09-27T12:54:50Z</time>
      </trkpt>
      <trkpt lat="45.25839" lon="0.31616">
        <ele>58</ele>
        <time>2016-09-27T12:55:04Z</time>
      </trkpt>
      <trkpt lat="45.25854" lon="0.31606">
        <ele>59</ele>
        <time>2016-09-27T12:55:19Z</time>
      </trkpt>
      <trkpt lat="45.25868" lon="0.31597">
        <ele>60</ele>
        <time>2016-09-27T12:55:33Z</time>
      </trkpt>
      <trkpt lat="45.25885" lon="0.31588">
        <ele>58</ele>
        <time>2016-09-27T12:55:47Z</time>
      </trkpt>
      <trkpt lat="45.25899" lon="0.31575">
        <ele>60</ele>
        <time>2016-09-27T12:56:01Z</time>
      </trkpt>
      <trkpt lat="45.25916" lon="0.31564">
        <ele>58</ele>
        <time>2016-09-27T12:56:15Z</time>
      </trkpt>
      <trkpt lat="45.25931" lon="0.31553">
        <ele>61</ele>
        <time>2016-09-27T12:56:30Z</time>
      </trkpt>
      <trkpt lat="45.25946" lon="0.31538">
        <ele>61</ele>
        <time>2016-09-27T12:56:44Z</time>
      </trkpt>
      <trkpt lat="45.25958" lon="0.31524">
        <ele>62</ele>
        <time>2016-09-27T12:56:59Z</time>
      </trkpt>
      <trkpt lat="45.25972" lon="0.31508">
        <ele>58</ele>
        <time>2016-09-27T12:57:13Z</time>
      </trkpt>
      <trkpt lat="45.25986" lon="0.31495">
        <ele>58</ele>
        <time>2016-09-27T12:57:28Z</time>
      </trkpt>
      <trkpt lat="45.25999" lon="0.31482">
        <ele>57</ele>
        <time>2016-09-27T12:57:42Z</time>
      </trkpt>
      <trkpt lat="45.26013" lon="0.31471">
        <ele>59</ele>
        <time>2016-09-27T12:57:57Z</time>
      </trkpt>
      <trkpt lat="45.26026" lon="0.31465">
        <ele>62</ele>
        <time>2016-09-27T12:58:11Z</time>
      </trkpt>
      <trkpt lat="45.2604" lon="0.31451">
        <ele>60</ele>
        <time>2016-09-27T12:58:26Z</time>
      </trkpt>
      <trkpt lat="45.26055" lon="0.31443">
        <ele>63</ele>
        <time>2016-09-27T12:58:40Z</time>
      </trkpt>
      <trkpt lat="45.2607" lon="0.31433">
        <ele>62</ele>
        <time>2016-09-27T12:58:54Z</time>
      </trkpt>
      <trkpt lat="45.26082" lon="0.31417">
        <ele>61</ele>
        <time>2016-09-27T12:59:08Z</time>
      </trkpt>
      <trkpt lat="45.26097" lon="0.31401">
        <ele>62</ele>
        <time>2016-09-27T12:59:23Z</time>
      </trkpt>
      <trkpt lat="45.26109" lon="0.3138">
        <ele>59</ele>
        <time>2016-09-27T12:59:37Z</time>
      </trkpt>
      <trkpt lat="45.26119" lon="0.31349">
        <ele>54</ele>
        <time>2016-09-27T12:59:52Z</time>
      </trkpt>
      <trkpt lat="45.26129" lon="0.31332">
        <ele>56</ele>
        <time>2016-09-27T13:00:06Z</time>
      </trkpt>
      <trkpt lat="45.2614" lon="0.31318">
        <ele>54</ele>
        <time>2016-09-27T13:00:20Z</time>
      </trkpt>
      <trkpt lat="45.26152" lon="0.31308">
        <ele>55</ele>
        <time>2016-09-27T13:00:34Z</time>
      </trkpt>
      <trkpt lat="45.26156" lon="0.31278">
        <ele>52</ele>
        <time>2016-09-27T13:00:48Z</time>
      </trkpt>
      <trkpt lat="45.2615" lon="0.31256">
        <ele>61</ele>
        <time>2016-09-27T13:01:03Z</time>
      </trkpt>
      <trkpt lat="45.26138" lon="0.31234">
        <ele>60</ele>
        <time>2016-09-27T13:01:18Z</time>
      </trkpt>
      <trkpt lat="45.26124" lon="0.31213">
        <ele>55</ele>
        <time>2016-09-27T13:01:33Z</time>
      </trkpt>
      <trkpt lat="45.26112" lon="0.31191">
        <ele>51</ele>
        <time>2016-09-27T13:01:47Z</time>
      </trkpt>
      <trkpt lat="45.26102" lon="0.31178">
        <ele>55</ele>
        <time>2016-09-27T13:02:02Z</time>
      </trkpt>
      <trkpt lat="45.26092" lon="0.31167">
        <ele>62</ele>
        <time>2016-09-27T13:02:17Z</time>
      </trkpt>
      <trkpt lat="45.26082" lon="0.31141">
        <ele>62</ele>
        <time>2016-09-27T13:02:31Z</time>
      </trkpt>
      <trkpt lat="45.26071" lon="0.31127">
        <ele>63</ele>
        <time>2016-09-27T13:02:45Z</time>
      </trkpt>
      <trkpt lat="45.26059" lon="0.31109">
        <ele>62</ele>
        <time>2016-09-27T13:03:00Z</time>
      </trkpt>
      <trkpt lat="45.26046" lon="0.31096">
        <ele>60</ele>
        <time>2016-09-27T13:03:14Z</time>
      </trkpt>
      <trkpt lat="45.2603" lon="0.31085">
        <ele>55</ele>
        <time>2016-09-27T13:03:28Z</time>
      </trkpt>
      <trkpt lat="45.26017" lon="0.31074">
        <ele>54</ele>
        <time>2016-09-27T13:03:42Z</time>
      </trkpt>
      <trkpt lat="45.26004" lon="0.31061">
        <ele>55</ele>
        <time>2016-09-27T13:03:57Z</time>
      </trkpt>
      <trkpt lat="45.25984" lon="0.31047">
        <ele>58</ele>
        <time>2016-09-27T13:04:11Z</time>
      </trkpt>
      <trkpt lat="45.2597" lon="0.31033">
        <ele>65</ele>
        <time>2016-09-27T13:04:26Z</time>
      </trkpt>
      <trkpt lat="45.25956" lon="0.31021">
        <ele>61</ele>
        <time>2016-09-27T13:04:40Z</time>
      </trkpt>
      <trkpt lat="45.25945" lon="0.31008">
        <ele>66</ele>
        <time>2016-09-27T13:04:55Z</time>
      </trkpt>
      <trkpt lat="45.25928" lon="0.30997">
        <ele>62</ele>
        <time>2016-09-27T13:05:09Z</time>
      </trkpt>
      <trkpt lat="45.25915" lon="0.30985">
        <ele>61</ele>
        <time>2016-09-27T13:05:24Z</time>
      </trkpt>
      <trkpt lat="45.25903" lon="0.30965">
        <ele>56</ele>
        <time>2016-09-27T13:05:39Z</time>
      </trkpt>
      <trkpt lat="45.25886" lon="0.30951">
        <ele>55</ele>
        <time>2016-09-27T13:05:53Z</time>
      </trkpt>
      <trkpt lat="45.25876" lon="0.30945">
        <ele>57</ele>
        <time>2016-09-27T13:06:07Z</time>
      </trkpt>
      <trkpt lat="45.25866" lon="0.30937">
        <ele>57</ele>
        <time>2016-09-27T13:06:21Z</time>
      </trkpt>
      <trkpt lat="45.25858" lon="0.3094">
        <ele>59</ele>
        <time>2016-09-27T13:09:37Z</time>
      </trkpt>
      <trkpt lat="45.25855" lon="0.30929">
        <ele>60</ele>
        <time>2016-09-27T13:10:04Z</time>
      </trkpt>
      <trkpt lat="45.25855" lon="0.30916">
        <ele>62</ele>
        <time>2016-09-27T13:10:19Z</time>
      </trkpt>
      <trkpt lat="45.2585" lon="0.30893">
        <ele>59</ele>
        <time>2016-09-27T13:10:33Z</time>
      </trkpt>
      <trkpt lat="45.25843" lon="0.30868">
        <ele>58</ele>
        <time>2016-09-27T13:10:47Z</time>
      </trkpt>
      <trkpt lat="45.25834" lon="0.30853">
        <ele>65</ele>
        <time>2016-09-27T13:11:01Z</time>
      </trkpt>
      <trkpt lat="45.25821" lon="0.30843">
        <ele>71</ele>
        <time>2016-09-27T13:11:16Z</time>
      </trkpt>
      <trkpt lat="45.25806" lon="0.30832">
        <ele>76</ele>
        <time>2016-09-27T13:11:30Z</time>
      </trkpt>
      <trkpt lat="45.25792" lon="0.3082">
        <ele>77</ele>
        <time>2016-09-27T13:11:44Z</time>
      </trkpt>
      <trkpt lat="45.25775" lon="0.30809">
        <ele>73</ele>
        <time>2016-09-27T13:11:58Z</time>
      </trkpt>
      <trkpt lat="45.25759" lon="0.30795">
        <ele>67</ele>
        <time>2016-09-27T13:12:12Z</time>
      </trkpt>
      <trkpt lat="45.25737" lon="0.30784">
        <ele>63</ele>
        <time>2016-09-27T13:12:27Z</time>
      </trkpt>
      <trkpt lat="45.25722" lon="0.30772">
        <ele>66</ele>
        <time>2016-09-27T13:12:41Z</time>
      </trkpt>
      <trkpt lat="45.25707" lon="0.30761">
        <ele>67</ele>
        <time>2016-09-27T13:12:55Z</time>
      </trkpt>
      <trkpt lat="45.25691" lon="0.30749">
        <ele>70</ele>
        <time>2016-09-27T13:13:10Z</time>
      </trkpt>
      <trkpt lat="45.25677" lon="0.30739">
        <ele>71</ele>
        <time>2016-09-27T13:13:24Z</time>
      </trkpt>
      <trkpt lat="45.25662" lon="0.30728">
        <ele>71</ele>
        <time>2016-09-27T13:13:38Z</time>
      </trkpt>
      <trkpt lat="45.25645" lon="0.30717">
        <ele>69</ele>
        <time>2016-09-27T13:13:52Z</time>
      </trkpt>
      <trkpt lat="45.25626" lon="0.30708">
        <ele>67</ele>
        <time>2016-09-27T13:14:07Z</time>
      </trkpt>
      <trkpt lat="45.25611" lon="0.30696">
        <ele>67</ele>
        <time>2016-09-27T13:14:21Z</time>
      </trkpt>
      <trkpt lat="45.256" lon="0.30681">
        <ele>67</ele>
        <time>2016-09-27T13:14:36Z</time>
      </trkpt>
      <trkpt lat="45.25606" lon="0.30664">
        <ele>67</ele>
        <time>2016-09-27T13:14:50Z</time>
      </trkpt>
      <trkpt lat="45.25614" lon="0.30641">
        <ele>69</ele>
        <time>2016-09-27T13:15:05Z</time>
      </trkpt>
      <trkpt lat="45.25608" lon="0.30619">
        <ele>73</ele>
        <time>2016-09-27T13:15:20Z</time>
      </trkpt>
      <trkpt lat="45.25595" lon="0.30605">
        <ele>79</ele>
        <time>2016-09-27T13:15:35Z</time>
      </trkpt>
      <trkpt lat="45.25577" lon="0.30591">
        <ele>78</ele>
        <time>2016-09-27T13:15:49Z</time>
      </trkpt>
      <trkpt lat="45.25564" lon="0.30576">
        <ele>78</ele>
        <time>2016-09-27T13:16:04Z</time>
      </trkpt>
      <trkpt lat="45.25548" lon="0.3056">
        <ele>77</ele>
        <time>2016-09-27T13:16:19Z</time>
      </trkpt>
      <trkpt lat="45.25537" lon="0.30543">
        <ele>79</ele>
        <time>2016-09-27T13:16:34Z</time>
      </trkpt>
      <trkpt lat="45.25528" lon="0.30525">
        <ele>75</ele>
        <time>2016-09-27T13:16:49Z</time>
      </trkpt>
      <trkpt lat="45.25517" lon="0.30502">
        <ele>75</ele>
        <time>2016-09-27T13:17:03Z</time>
      </trkpt>
      <trkpt lat="45.25504" lon="0.30484">
        <ele>78</ele>
        <time>2016-09-27T13:17:17Z</time>
      </trkpt>
      <trkpt lat="45.25492" lon="0.30465">
        <ele>79</ele>
        <time>2016-09-27T13:17:31Z</time>
      </trkpt>
      <trkpt lat="45.25483" lon="0.30442">
        <ele>81</ele>
        <time>2016-09-27T13:17:45Z</time>
      </trkpt>
      <trkpt lat="45.25472" lon="0.30426">
        <ele>82</ele>
        <time>2016-09-27T13:17:59Z</time>
      </trkpt>
      <trkpt lat="45.25461" lon="0.30406">
        <ele>85</ele>
        <time>2016-09-27T13:18:14Z</time>
      </trkpt>
      <trkpt lat="45.25451" lon="0.30392">
        <ele>86</ele>
        <time>2016-09-27T13:18:28Z</time>
      </trkpt>
      <trkpt lat="45.25438" lon="0.30369">
        <ele>82</ele>
        <time>2016-09-27T13:18:43Z</time>
      </trkpt>
      <trkpt lat="45.25428" lon="0.30357">
        <ele>86</ele>
        <time>2016-09-27T13:18:56Z</time>
      </trkpt>
      <trkpt lat="45.25421" lon="0.3035">
        <ele>83</ele>
        <time>2016-09-27T13:19:12Z</time>
      </trkpt>
      <trkpt lat="45.25415" lon="0.30342">
        <ele>88</ele>
        <time>2016-09-27T13:19:33Z</time>
      </trkpt>
      <trkpt lat="45.25401" lon="0.30334">
        <ele>85</ele>
        <time>2016-09-27T13:19:48Z</time>
      </trkpt>
      <trkpt lat="45.25393" lon="0.30335">
        <ele>89</ele>
        <time>2016-09-27T13:20:03Z</time>
      </trkpt>
      <trkpt lat="45.25382" lon="0.30332">
        <ele>87</ele>
        <time>2016-09-27T13:20:17Z</time>
      </trkpt>
      <trkpt lat="45.25373" lon="0.30334">
        <ele>91</ele>
        <time>2016-09-27T13:20:31Z</time>
      </trkpt>
      <trkpt lat="45.25349" lon="0.30337">
        <ele>86</ele>
        <time>2016-09-27T13:20:46Z</time>
      </trkpt>
      <trkpt lat="45.25336" lon="0.3034">
        <ele>96</ele>
        <time>2016-09-27T13:21:01Z</time>
      </trkpt>
      <trkpt lat="45.25326" lon="0.30341">
        <ele>99</ele>
        <time>2016-09-27T13:21:15Z</time>
      </trkpt>
      <trkpt lat="45.25311" lon="0.30342">
        <ele>95</ele>
        <time>2016-09-27T13:21:29Z</time>
      </trkpt>
      <trkpt lat="45.25293" lon="0.30346">
        <ele>96</ele>
        <time>2016-09-27T13:21:44Z</time>
      </trkpt>
      <trkpt lat="45.25284" lon="0.3035">
        <ele>101</ele>
        <time>2016-09-27T13:21:58Z</time>
      </trkpt>
      <trkpt lat="45.25263" lon="0.30356">
        <ele>98</ele>
        <time>2016-09-27T13:22:12Z</time>
      </trkpt>
      <trkpt lat="45.25243" lon="0.30369">
        <ele>98</ele>
        <time>2016-09-27T13:22:27Z</time>
      </trkpt>
      <trkpt lat="45.25231" lon="0.3038">
        <ele>106</ele>
        <time>2016-09-27T13:22:41Z</time>
      </trkpt>
      <trkpt lat="45.25218" lon="0.30393">
        <ele>108</ele>
        <time>2016-09-27T13:22:56Z</time>
      </trkpt>
      <trkpt lat="45.25207" lon="0.30414">
        <ele>108</ele>
        <time>2016-09-27T13:23:10Z</time>
      </trkpt>
      <trkpt lat="45.25192" lon="0.3044">
        <ele>99</ele>
        <time>2016-09-27T13:23:25Z</time>
      </trkpt>
      <trkpt lat="45.25188" lon="0.30458">
        <ele>99</ele>
        <time>2016-09-27T13:23:39Z</time>
      </trkpt>
      <trkpt lat="45.25182" lon="0.30472">
        <ele>95</ele>
        <time>2016-09-27T13:23:53Z</time>
      </trkpt>
      <trkpt lat="45.25185" lon="0.30502">
        <ele>91</ele>
        <time>2016-09-27T13:24:07Z</time>
      </trkpt>
      <trkpt lat="45.25184" lon="0.30523">
        <ele>89</ele>
        <time>2016-09-27T13:24:22Z</time>
      </trkpt>
      <trkpt lat="45.25181" lon="0.30535">
        <ele>93</ele>
        <time>2016-09-27T13:24:37Z</time>
      </trkpt>
      <trkpt lat="45.25181" lon="0.30557">
        <ele>93</ele>
        <time>2016-09-27T13:24:52Z</time>
      </trkpt>
      <trkpt lat="45.25182" lon="0.30574">
        <ele>94</ele>
        <time>2016-09-27T13:25:06Z</time>
      </trkpt>
      <trkpt lat="45.25182" lon="0.30597">
        <ele>94</ele>
        <time>2016-09-27T13:25:21Z</time>
      </trkpt>
      <trkpt lat="45.25184" lon="0.30621">
        <ele>92</ele>
        <time>2016-09-27T13:25:35Z</time>
      </trkpt>
      <trkpt lat="45.25181" lon="0.30634">
        <ele>92</ele>
        <time>2016-09-27T13:25:50Z</time>
      </trkpt>
      <trkpt lat="45.25181" lon="0.30648">
        <ele>95</ele>
        <time>2016-09-27T13:26:04Z</time>
      </trkpt>
      <trkpt lat="45.25181" lon="0.30659">
        <ele>103</ele>
        <time>2016-09-27T13:26:18Z</time>
      </trkpt>
      <trkpt lat="45.25175" lon="0.30678">
        <ele>97</ele>
        <time>2016-09-27T13:26:33Z</time>
      </trkpt>
      <trkpt lat="45.25165" lon="0.30683">
        <ele>98</ele>
        <time>2016-09-27T13:26:47Z</time>
      </trkpt>
      <trkpt lat="45.25155" lon="0.3069">
        <ele>104</ele>
        <time>2016-09-27T13:27:02Z</time>
      </trkpt>
      <trkpt lat="45.25153" lon="0.30711">
        <ele>104</ele>
        <time>2016-09-27T13:27:17Z</time>
      </trkpt>
      <trkpt lat="45.25144" lon="0.30711">
        <ele>105</ele>
        <time>2016-09-27T13:27:34Z</time>
      </trkpt>
      <trkpt lat="45.2513" lon="0.3071">
        <ele>102</ele>
        <time>2016-09-27T13:27:49Z</time>
      </trkpt>
      <trkpt lat="45.2511" lon="0.30712">
        <ele>105</ele>
        <time>2016-09-27T13:28:03Z</time>
      </trkpt>
      <trkpt lat="45.2509" lon="0.30706">
        <ele>104</ele>
        <time>2016-09-27T13:28:18Z</time>
      </trkpt>
      <trkpt lat="45.25068" lon="0.30701">
        <ele>104</ele>
        <time>2016-09-27T13:28:32Z</time>
      </trkpt>
      <trkpt lat="45.25056" lon="0.30715">
        <ele>102</ele>
        <time>2016-09-27T13:28:47Z</time>
      </trkpt>
      <trkpt lat="45.25049" lon="0.30726">
        <ele>105</ele>
        <time>2016-09-27T13:29:01Z</time>
      </trkpt>
      <trkpt lat="45.25051" lon="0.30746">
        <ele>106</ele>
        <time>2016-09-27T13:29:15Z</time>
      </trkpt>
      <trkpt lat="45.25053" lon="0.30768">
        <ele>103</ele>
        <time>2016-09-27T13:29:30Z</time>
      </trkpt>
      <trkpt lat="45.25059" lon="0.30777">
        <ele>104</ele>
        <time>2016-09-27T13:29:44Z</time>
      </trkpt>
      <trkpt lat="45.25054" lon="0.30793">
        <ele>98</ele>
        <time>2016-09-27T13:29:58Z</time>
      </trkpt>
      <trkpt lat="45.2505" lon="0.30804">
        <ele>101</ele>
        <time>2016-09-27T13:30:13Z</time>
      </trkpt>
      <trkpt lat="45.2505" lon="0.30828">
        <ele>100</ele>
        <time>2016-09-27T13:30:28Z</time>
      </trkpt>
      <trkpt lat="45.25044" lon="0.30846">
        <ele>111</ele>
        <time>2016-09-27T13:30:42Z</time>
      </trkpt>
      <trkpt lat="45.25043" lon="0.30866">
        <ele>110</ele>
        <time>2016-09-27T13:30:56Z</time>
      </trkpt>
      <trkpt lat="45.25038" lon="0.30885">
        <ele>108</ele>
        <time>2016-09-27T13:31:11Z</time>
      </trkpt>
      <trkpt lat="45.25033" lon="0.30903">
        <ele>114</ele>
        <time>2016-09-27T13:31:25Z</time>
      </trkpt>
      <trkpt lat="45.25025" lon="0.30917">
        <ele>112</ele>
        <time>2016-09-27T13:31:39Z</time>
      </trkpt>
      <trkpt lat="45.25023" lon="0.30929">
        <ele>104</ele>
        <time>2016-09-27T13:32:04Z</time>
      </trkpt>
      <trkpt lat="45.25025" lon="0.30941">
        <ele>108</ele>
        <time>2016-09-27T13:35:26Z</time>
      </trkpt>
      <trkpt lat="45.25017" lon="0.30941">
        <ele>103</ele>
        <time>2016-09-27T13:36:17Z</time>
      </trkpt>
      <trkpt lat="45.25002" lon="0.3093">
        <ele>100</ele>
        <time>2016-09-27T13:36:31Z</time>
      </trkpt>
      <trkpt lat="45.24987" lon="0.30916">
        <ele>99.000399703715</ele>
        <time>2016-09-27T13:36:45Z</time>
      </trkpt>
      <trkpt lat="45.24975" lon="0.30904">
        <ele>105.00075343531</ele>
        <time>2016-09-27T13:36:59Z</time>
      </trkpt>
      <trkpt lat="45.24966" lon="0.30891">
        <ele>111.00102915416</ele>
        <time>2016-09-27T13:37:14Z</time>
      </trkpt>
      <trkpt lat="45.24952" lon="0.30879">
        <ele>110.00147321223</ele>
        <time>2016-09-27T13:37:28Z</time>
      </trkpt>
      <trkpt lat="45.24937" lon="0.30867">
        <ele>112.00194036495</ele>
        <time>2016-09-27T13:37:43Z</time>
      </trkpt>
      <trkpt lat="45.24922" lon="0.30856">
        <ele>112.00239149336</ele>
        <time>2016-09-27T13:37:57Z</time>
      </trkpt>
      <trkpt lat="45.24911" lon="0.30842">
        <ele>114.00273084696</ele>
        <time>2016-09-27T13:38:11Z</time>
      </trkpt>
      <trkpt lat="45.24896" lon="0.30829">
        <ele>115.00319625831</ele>
        <time>2016-09-27T13:38:26Z</time>
      </trkpt>
      <trkpt lat="45.24877" lon="0.30818">
        <ele>115.00377268406</ele>
        <time>2016-09-27T13:38:41Z</time>
      </trkpt>
      <trkpt lat="45.24857" lon="0.30809">
        <ele>113.00440673833</ele>
        <time>2016-09-27T13:38:55Z</time>
      </trkpt>
      <trkpt lat="45.2484" lon="0.30813">
        <ele>116.00491543452</ele>
        <time>2016-09-27T13:39:10Z</time>
      </trkpt>
      <trkpt lat="45.24825" lon="0.30832">
        <ele>112.00537293391</ele>
        <time>2016-09-27T13:39:24Z</time>
      </trkpt>
      <trkpt lat="45.24808" lon="0.30836">
        <ele>112.00587851408</ele>
        <time>2016-09-27T13:39:39Z</time>
      </trkpt>
      <trkpt lat="45.24796" lon="0.30853">
        <ele>113.0062639653</ele>
        <time>2016-09-27T13:39:53Z</time>
      </trkpt>
      <trkpt lat="45.24786" lon="0.30874">
        <ele>108.00653613951</ele>
        <time>2016-09-27T13:40:08Z</time>
      </trkpt>
      <trkpt lat="45.24778" lon="0.30901">
        <ele>105.0067931943</ele>
        <time>2016-09-27T13:40:23Z</time>
      </trkpt>
      <trkpt lat="45.24768" lon="0.30922">
        <ele>103.00707638272</ele>
        <time>2016-09-27T13:40:37Z</time>
      </trkpt>
      <trkpt lat="45.2476" lon="0.30941">
        <ele>102.00731142616</ele>
        <time>2016-09-27T13:40:51Z</time>
      </trkpt>
      <trkpt lat="45.24752" lon="0.30961">
        <ele>100.00754728384</ele>
        <time>2016-09-27T13:41:06Z</time>
      </trkpt>
      <trkpt lat="45.24748" lon="0.30981">
        <ele>101.00767879976</ele>
        <time>2016-09-27T13:41:20Z</time>
      </trkpt>
      <trkpt lat="45.24746" lon="0.31006">
        <ele>98.007733176342</ele>
        <time>2016-09-27T13:41:34Z</time>
      </trkpt>
      <trkpt lat="45.24751" lon="0.31033">
        <ele>91.007554388325</ele>
        <time>2016-09-27T13:41:48Z</time>
      </trkpt>
      <trkpt lat="45.24749" lon="0.31049">
        <ele>92.007625544579</ele>
        <time>2016-09-27T13:42:03Z</time>
      </trkpt>
      <trkpt lat="45.24743" lon="0.31068">
        <ele>97.007779295226</ele>
        <time>2016-09-27T13:42:17Z</time>
      </trkpt>
      <trkpt lat="45.24734" lon="0.31091">
        <ele>92.008049843918</ele>
        <time>2016-09-27T13:42:32Z</time>
      </trkpt>
      <trkpt lat="45.2472" lon="0.31095">
        <ele>93.00847840227</ele>
        <time>2016-09-27T13:42:46Z</time>
      </trkpt>
      <trkpt lat="45.247" lon="0.31092">
        <ele>92.009071491434</ele>
        <time>2016-09-27T13:43:01Z</time>
      </trkpt>
      <trkpt lat="45.24682" lon="0.31101">
        <ele>88.00961784157</ele>
        <time>2016-09-27T13:43:15Z</time>
      </trkpt>
      <trkpt lat="45.24666" lon="0.31113">
        <ele>89.010099003689</ele>
        <time>2016-09-27T13:43:30Z</time>
      </trkpt>
      <trkpt lat="45.24653" lon="0.31132">
        <ele>82.010484782661</ele>
        <time>2016-09-27T13:43:44Z</time>
      </trkpt>
      <trkpt lat="45.2464" lon="0.31149">
        <ele>77.010857817259</ele>
        <time>2016-09-27T13:43:58Z</time>
      </trkpt>
      <trkpt lat="45.24629" lon="0.31172">
        <ele>73.011176663491</ele>
        <time>2016-09-27T13:44:12Z</time>
      </trkpt>
      <trkpt lat="45.24614" lon="0.31189">
        <ele>70.011621709325</ele>
        <time>2016-09-27T13:44:27Z</time>
      </trkpt>
      <trkpt lat="45.24603" lon="0.31208">
        <ele>68.011939330905</ele>
        <time>2016-09-27T13:44:41Z</time>
      </trkpt>
      <trkpt lat="45.24591" lon="0.31225">
        <ele>66.012298648984</ele>
        <time>2016-09-27T13:44:55Z</time>
      </trkpt>
      <trkpt lat="45.2458" lon="0.31248">
        <ele>62.012595644723</ele>
        <time>2016-09-27T13:45:09Z</time>
      </trkpt>
      <trkpt lat="45.2457" lon="0.3127">
        <ele>61.012889165114</ele>
        <time>2016-09-27T13:45:24Z</time>
      </trkpt>
      <trkpt lat="45.24555" lon="0.31279">
        <ele>65.013325669073</ele>
        <time>2016-09-27T13:45:38Z</time>
      </trkpt>
      <trkpt lat="45.24539" lon="0.31281">
        <ele>67.013800704917</ele>
        <time>2016-09-27T13:45:52Z</time>
      </trkpt>
      <trkpt lat="45.24519" lon="0.31289">
        <ele>66.01441334066</ele>
        <time>2016-09-27T13:46:07Z</time>
      </trkpt>
      <trkpt lat="45.24503" lon="0.31295">
        <ele>67.014887471226</ele>
        <time>2016-09-27T13:46:21Z</time>
      </trkpt>
      <trkpt lat="45.24485" lon="0.31295">
        <ele>70.015421133796</ele>
        <time>2016-09-27T13:46:35Z</time>
      </trkpt>
      <trkpt lat="45.24464" lon="0.31297">
        <ele>72.01603402326</ele>
        <time>2016-09-27T13:46:50Z</time>
      </trkpt>
      <trkpt lat="45.24449" lon="0.31307">
        <ele>69.016479462675</ele>
        <time>2016-09-27T13:47:04Z</time>
      </trkpt>
      <trkpt lat="45.24442" lon="0.31313">
        <ele>66.016679008558</ele>
        <time>2016-09-27T13:47:22Z</time>
      </trkpt>
      <trkpt lat="45.24423" lon="0.31318">
        <ele>70.01725141568</ele>
        <time>2016-09-27T13:47:36Z</time>
      </trkpt>
      <trkpt lat="45.24399" lon="0.31313">
        <ele>74.017973592087</ele>
        <time>2016-09-27T13:47:50Z</time>
      </trkpt>
      <trkpt lat="45.2438" lon="0.31316">
        <ele>73.018539599385</ele>
        <time>2016-09-27T13:48:04Z</time>
      </trkpt>
      <trkpt lat="45.24365" lon="0.31306">
        <ele>77.01899956536</ele>
        <time>2016-09-27T13:48:19Z</time>
      </trkpt>
      <trkpt lat="45.2435" lon="0.31298">
        <ele>79.019443091712</ele>
        <time>2016-09-27T13:48:33Z</time>
      </trkpt>
      <trkpt lat="45.24334" lon="0.31289">
        <ele>79.019949709552</ele>
        <time>2016-09-27T13:48:47Z</time>
      </trkpt>
      <trkpt lat="45.24314" lon="0.3128">
        <ele>78.020556796849</ele>
        <time>2016-09-27T13:49:02Z</time>
      </trkpt>
      <trkpt lat="45.24297" lon="0.31272">
        <ele>83.021058407707</ele>
        <time>2016-09-27T13:49:16Z</time>
      </trkpt>
      <trkpt lat="45.24282" lon="0.31293">
        <ele>76.021478170847</ele>
        <time>2016-09-27T13:49:31Z</time>
      </trkpt>
      <trkpt lat="45.24273" lon="0.31311">
        <ele>74.021738792357</ele>
        <time>2016-09-27T13:49:45Z</time>
      </trkpt>
      <trkpt lat="45.24265" lon="0.3132">
        <ele>73.021959007174</ele>
        <time>2016-09-27T13:49:59Z</time>
      </trkpt>
      <trkpt lat="45.24258" lon="0.31326">
        <ele>72.022181733298</ele>
        <time>2016-09-27T13:50:14Z</time>
      </trkpt>
      <trkpt lat="45.24257" lon="0.31338">
        <ele>75.022191279754</ele>
        <time>2016-09-27T13:51:14Z</time>
      </trkpt>
      <trkpt lat="45.24264" lon="0.31334">
        <ele>71.021990713698</ele>
        <time>2016-09-27T13:52:42Z</time>
      </trkpt>
      <trkpt lat="45.24277" lon="0.31301">
        <ele>69.021625572682</ele>
        <time>2016-09-27T13:52:56Z</time>
      </trkpt>
      <trkpt lat="45.24269" lon="0.31302">
        <ele>71.021872957529</ele>
        <time>2016-09-27T13:53:32Z</time>
      </trkpt>
      <trkpt lat="45.24255" lon="0.31326">
        <ele>71.022254964545</ele>
        <time>2016-09-27T13:53:46Z</time>
      </trkpt>
      <trkpt lat="45.2424" lon="0.31354">
        <ele>70.02268586731</ele>
        <time>2016-09-27T13:54:01Z</time>
      </trkpt>
      <trkpt lat="45.2423" lon="0.3138">
        <ele>73.022949469235</ele>
        <time>2016-09-27T13:54:15Z</time>
      </trkpt>
      <trkpt lat="45.24216" lon="0.31404">
        <ele>71.023336969743</ele>
        <time>2016-09-27T13:54:29Z</time>
      </trkpt>
      <trkpt lat="45.24205" lon="0.3143">
        <ele>71.023631798563</ele>
        <time>2016-09-27T13:54:44Z</time>
      </trkpt>
      <trkpt lat="45.24185" lon="0.3144">
        <ele>71.0242063241</ele>
        <time>2016-09-27T13:54:58Z</time>
      </trkpt>
      <trkpt lat="45.24166" lon="0.31434">
        <ele>72.024789133271</ele>
        <time>2016-09-27T13:55:12Z</time>
      </trkpt>
      <trkpt lat="45.24153" lon="0.3142">
        <ele>76.025192860588</ele>
        <time>2016-09-27T13:55:27Z</time>
      </trkpt>
      <trkpt lat="45.24138" lon="0.31406">
        <ele>77.025638278981</ele>
        <time>2016-09-27T13:55:41Z</time>
      </trkpt>
      <trkpt lat="45.24122" lon="0.31398">
        <ele>81.026122066552</ele>
        <time>2016-09-27T13:55:55Z</time>
      </trkpt>
      <trkpt lat="45.24104" lon="0.31401">
        <ele>84.026662979722</ele>
        <time>2016-09-27T13:56:10Z</time>
      </trkpt>
      <trkpt lat="45.24087" lon="0.31412">
        <ele>85.0271658533</ele>
        <time>2016-09-27T13:56:25Z</time>
      </trkpt>
      <trkpt lat="45.24071" lon="0.3142">
        <ele>85.027633679033</ele>
        <time>2016-09-27T13:56:40Z</time>
      </trkpt>
      <trkpt lat="45.24057" lon="0.31426">
        <ele>88.02802257128</ele>
        <time>2016-09-27T13:56:54Z</time>
      </trkpt>
      <trkpt lat="45.24042" lon="0.31439">
        <ele>88.028459597117</ele>
        <time>2016-09-27T13:57:09Z</time>
      </trkpt>
      <trkpt lat="45.24028" lon="0.31452">
        <ele>89.028834387559</ele>
        <time>2016-09-27T13:57:24Z</time>
      </trkpt>
      <trkpt lat="45.24013" lon="0.31465">
        <ele>88.029269531568</ele>
        <time>2016-09-27T13:57:39Z</time>
      </trkpt>
      <trkpt lat="45.23998" lon="0.31476">
        <ele>88.029686051381</ele>
        <time>2016-09-27T13:57:53Z</time>
      </trkpt>
      <trkpt lat="45.23983" lon="0.31488">
        <ele>89.030129859142</ele>
        <time>2016-09-27T13:58:08Z</time>
      </trkpt>
      <trkpt lat="45.23968" lon="0.315">
        <ele>90.030546251028</ele>
        <time>2016-09-27T13:58:22Z</time>
      </trkpt>
      <trkpt lat="45.23952" lon="0.31511">
        <ele>90.031017630005</ele>
        <time>2016-09-27T13:58:37Z</time>
      </trkpt>
      <trkpt lat="45.23936" lon="0.3152">
        <ele>91.031473828461</ele>
        <time>2016-09-27T13:58:51Z</time>
      </trkpt>
      <trkpt lat="45.2392" lon="0.31529">
        <ele>92.031921254509</ele>
        <time>2016-09-27T13:59:06Z</time>
      </trkpt>
      <trkpt lat="45.23905" lon="0.31538">
        <ele>92.032346801553</ele>
        <time>2016-09-27T13:59:20Z</time>
      </trkpt>
      <trkpt lat="45.23889" lon="0.31545">
        <ele>94.032803277389</ele>
        <time>2016-09-27T13:59:34Z</time>
      </trkpt>
      <trkpt lat="45.2387" lon="0.3155">
        <ele>94.033355407695</ele>
        <time>2016-09-27T13:59:49Z</time>
      </trkpt>
      <trkpt lat="45.23853" lon="0.31552">
        <ele>95.033843241306</ele>
        <time>2016-09-27T14:00:03Z</time>
      </trkpt>
      <trkpt lat="45.23837" lon="0.31552">
        <ele>96.034339812663</ele>
        <time>2016-09-27T14:00:17Z</time>
      </trkpt>
      <trkpt lat="45.23821" lon="0.31552">
        <ele>98.034808527554</ele>
        <time>2016-09-27T14:00:32Z</time>
      </trkpt>
      <trkpt lat="45.23805" lon="0.3155">
        <ele>99.035278306079</ele>
        <time>2016-09-27T14:00:46Z</time>
      </trkpt>
      <trkpt lat="45.23788" lon="0.31548">
        <ele>101.03577191694</ele>
        <time>2016-09-27T14:01:01Z</time>
      </trkpt>
      <trkpt lat="45.23769" lon="0.31549">
        <ele>100.03633526657</ele>
        <time>2016-09-27T14:01:16Z</time>
      </trkpt>
      <trkpt lat="45.23751" lon="0.31556">
        <ele>99.036873528798</ele>
        <time>2016-09-27T14:01:31Z</time>
      </trkpt>
      <trkpt lat="45.23734" lon="0.31564">
        <ele>98.037337395603</ele>
        <time>2016-09-27T14:01:45Z</time>
      </trkpt>
      <trkpt lat="45.23718" lon="0.31574">
        <ele>96.037784940436</ele>
        <time>2016-09-27T14:01:59Z</time>
      </trkpt>
      <trkpt lat="45.23705" lon="0.31584">
        <ele>98.038159668903</ele>
        <time>2016-09-27T14:02:13Z</time>
      </trkpt>
      <trkpt lat="45.23689" lon="0.31594">
        <ele>99.038614220483</ele>
        <time>2016-09-27T14:02:28Z</time>
      </trkpt>
      <trkpt lat="45.23675" lon="0.31603">
        <ele>99.039004635815</ele>
        <time>2016-09-27T14:02:42Z</time>
      </trkpt>
      <trkpt lat="45.23659" lon="0.31616">
        <ele>100.03945580405</ele>
        <time>2016-09-27T14:02:56Z</time>
      </trkpt>
      <trkpt lat="45.23643" lon="0.31628">
        <ele>100.03987678034</ele>
        <time>2016-09-27T14:03:10Z</time>
      </trkpt>
      <trkpt lat="45.23627" lon="0.3164">
        <ele>99.040336512098</ele>
        <time>2016-09-27T14:03:25Z</time>
      </trkpt>
      <trkpt lat="45.23613" lon="0.31652">
        <ele>100.04072709382</ele>
        <time>2016-09-27T14:03:39Z</time>
      </trkpt>
      <trkpt lat="45.23598" lon="0.31665">
        <ele>99.041138376861</ele>
        <time>2016-09-27T14:03:54Z</time>
      </trkpt>
      <trkpt lat="45.23584" lon="0.31676">
        <ele>101.04152996253</ele>
        <time>2016-09-27T14:04:08Z</time>
      </trkpt>
      <trkpt lat="45.2357" lon="0.31686">
        <ele>101.04191198175</ele>
        <time>2016-09-27T14:04:22Z</time>
      </trkpt>
      <trkpt lat="45.23571" lon="0.31704">
        <ele>101.04181851521</ele>
        <time>2016-09-27T14:04:37Z</time>
      </trkpt>
      <trkpt lat="45.23582" lon="0.31723">
        <ele>101.04147302246</ele>
        <time>2016-09-27T14:04:51Z</time>
      </trkpt>
      <trkpt lat="45.23591" lon="0.31741">
        <ele>101.04115783003</ele>
        <time>2016-09-27T14:05:06Z</time>
      </trkpt>
      <trkpt lat="45.23602" lon="0.31761">
        <ele>101.04081187578</ele>
        <time>2016-09-27T14:05:20Z</time>
      </trkpt>
      <trkpt lat="45.23611" lon="0.31784">
        <ele>100.04049068363</ele>
        <time>2016-09-27T14:05:35Z</time>
      </trkpt>
      <trkpt lat="45.23619" lon="0.31804">
        <ele>98.040197470845</ele>
        <time>2016-09-27T14:05:49Z</time>
      </trkpt>
      <trkpt lat="45.23626" lon="0.31827">
        <ele>97.039945530114</ele>
        <time>2016-09-27T14:06:04Z</time>
      </trkpt>
      <trkpt lat="45.23632" lon="0.31854">
        <ele>96.039732941603</ele>
        <time>2016-09-27T14:06:19Z</time>
      </trkpt>
      <trkpt lat="45.23635" lon="0.31869">
        <ele>100.03959622319</ele>
        <time>2016-09-27T14:06:33Z</time>
      </trkpt>
      <trkpt lat="45.2364" lon="0.31884">
        <ele>102.03942877146</ele>
        <time>2016-09-27T14:06:47Z</time>
      </trkpt>
      <trkpt lat="45.23645" lon="0.31894">
        <ele>104.0392420155</ele>
        <time>2016-09-27T14:07:25Z</time>
      </trkpt>
      <trkpt lat="45.23646" lon="0.31905">
        <ele>104.03920928538</ele>
        <time>2016-09-27T14:08:53Z</time>
      </trkpt>
      <trkpt lat="45.23651" lon="0.31935">
        <ele>99.038999905512</ele>
        <time>2016-09-27T14:09:07Z</time>
      </trkpt>
      <trkpt lat="45.23659" lon="0.31959">
        <ele>97.03871986649</ele>
        <time>2016-09-27T14:09:21Z</time>
      </trkpt>
      <trkpt lat="45.23665" lon="0.31982">
        <ele>94.038483251182</ele>
        <time>2016-09-27T14:09:35Z</time>
      </trkpt>
      <trkpt lat="45.2367" lon="0.32002">
        <ele>94.038293668277</ele>
        <time>2016-09-27T14:09:49Z</time>
      </trkpt>
      <trkpt lat="45.23674" lon="0.32018">
        <ele>95.038160293704</ele>
        <time>2016-09-27T14:10:03Z</time>
      </trkpt>
      <trkpt lat="45.23682" lon="0.32036">
        <ele>94.037878594552</ele>
        <time>2016-09-27T14:10:18Z</time>
      </trkpt>
      <trkpt lat="45.23696" lon="0.32054">
        <ele>94.037438212067</ele>
        <time>2016-09-27T14:10:32Z</time>
      </trkpt>
      <trkpt lat="45.23706" lon="0.32068">
        <ele>94.037126501803</ele>
        <time>2016-09-27T14:10:47Z</time>
      </trkpt>
      <trkpt lat="45.23716" lon="0.32084">
        <ele>96.036822485073</ele>
        <time>2016-09-27T14:11:01Z</time>
      </trkpt>
      <trkpt lat="45.23727" lon="0.321">
        <ele>98.036472149681</ele>
        <time>2016-09-27T14:11:16Z</time>
      </trkpt>
      <trkpt lat="45.23739" lon="0.32117">
        <ele>100.03608572191</ele>
        <time>2016-09-27T14:11:30Z</time>
      </trkpt>
      <trkpt lat="45.23748" lon="0.32133">
        <ele>101.03579314879</ele>
        <time>2016-09-27T14:11:44Z</time>
      </trkpt>
      <trkpt lat="45.23757" lon="0.3216">
        <ele>100.03548442289</ele>
        <time>2016-09-27T14:11:58Z</time>
      </trkpt>
      <trkpt lat="45.23772" lon="0.32164">
        <ele>102.03505805248</ele>
        <time>2016-09-27T14:12:13Z</time>
      </trkpt>
      <trkpt lat="45.23787" lon="0.32157">
        <ele>100.03461837908</ele>
        <time>2016-09-27T14:12:27Z</time>
      </trkpt>
      <trkpt lat="45.23802" lon="0.32146">
        <ele>100.03420980865</ele>
        <time>2016-09-27T14:12:41Z</time>
      </trkpt>
      <trkpt lat="45.23818" lon="0.32132">
        <ele>102.03380682066</ele>
        <time>2016-09-27T14:12:55Z</time>
      </trkpt>
      <trkpt lat="45.23831" lon="0.32121">
        <ele>103.03345331524</ele>
        <time>2016-09-27T14:13:10Z</time>
      </trkpt>
      <trkpt lat="45.23845" lon="0.32104">
        <ele>102.03306466892</ele>
        <time>2016-09-27T14:13:25Z</time>
      </trkpt>
      <trkpt lat="45.23861" lon="0.32092">
        <ele>103.03264214079</ele>
        <time>2016-09-27T14:13:40Z</time>
      </trkpt>
      <trkpt lat="45.23876" lon="0.3208">
        <ele>103.03222935464</ele>
        <time>2016-09-27T14:13:54Z</time>
      </trkpt>
      <trkpt lat="45.23892" lon="0.32068">
        <ele>102.03179984974</ele>
        <time>2016-09-27T14:14:08Z</time>
      </trkpt>
      <trkpt lat="45.23907" lon="0.32053">
        <ele>100.03138550398</ele>
        <time>2016-09-27T14:14:22Z</time>
      </trkpt>
      <trkpt lat="45.23924" lon="0.32041">
        <ele>100.03091716484</ele>
        <time>2016-09-27T14:14:37Z</time>
      </trkpt>
      <trkpt lat="45.23938" lon="0.32031">
        <ele>100.03052111245</ele>
        <time>2016-09-27T14:14:51Z</time>
      </trkpt>
      <trkpt lat="45.23955" lon="0.32021">
        <ele>100.03007424151</ele>
        <time>2016-09-27T14:15:05Z</time>
      </trkpt>
      <trkpt lat="45.2397" lon="0.32013">
        <ele>101.02964728149</ele>
        <time>2016-09-27T14:15:19Z</time>
      </trkpt>
      <trkpt lat="45.23985" lon="0.32007">
        <ele>101.02922696211</ele>
        <time>2016-09-27T14:15:33Z</time>
      </trkpt>
      <trkpt lat="45.24003" lon="0.32001">
        <ele>100.02871103656</ele>
        <time>2016-09-27T14:15:48Z</time>
      </trkpt>
      <trkpt lat="45.2402" lon="0.31994">
        <ele>100.0282235795</ele>
        <time>2016-09-27T14:16:03Z</time>
      </trkpt>
      <trkpt lat="45.24037" lon="0.31993">
        <ele>101.02774205965</ele>
        <time>2016-09-27T14:16:17Z</time>
      </trkpt>
      <trkpt lat="45.24055" lon="0.31992">
        <ele>100.0272193251</ele>
        <time>2016-09-27T14:16:32Z</time>
      </trkpt>
      <trkpt lat="45.24071" lon="0.31994">
        <ele>101.02677866085</ele>
        <time>2016-09-27T14:16:46Z</time>
      </trkpt>
      <trkpt lat="45.24088" lon="0.31994">
        <ele>99.026268218716</ele>
        <time>2016-09-27T14:17:01Z</time>
      </trkpt>
      <trkpt lat="45.24105" lon="0.31996">
        <ele>100.02578129371</ele>
        <time>2016-09-27T14:17:15Z</time>
      </trkpt>
      <trkpt lat="45.24123" lon="0.31998">
        <ele>101.0252666108</ele>
        <time>2016-09-27T14:17:29Z</time>
      </trkpt>
      <trkpt lat="45.24141" lon="0.32">
        <ele>99.024749028629</ele>
        <time>2016-09-27T14:17:44Z</time>
      </trkpt>
      <trkpt lat="45.24157" lon="0.31997">
        <ele>97.024271065366</ele>
        <time>2016-09-27T14:17:58Z</time>
      </trkpt>
      <trkpt lat="45.24175" lon="0.31993">
        <ele>97.023773133319</ele>
        <time>2016-09-27T14:18:13Z</time>
      </trkpt>
      <trkpt lat="45.24192" lon="0.31989">
        <ele>97.023299262115</ele>
        <time>2016-09-27T14:18:27Z</time>
      </trkpt>
      <trkpt lat="45.2421" lon="0.31994">
        <ele>96.022766383423</ele>
        <time>2016-09-27T14:18:42Z</time>
      </trkpt>
      <trkpt lat="45.24217" lon="0.32009">
        <ele>96.0225291835</ele>
        <time>2016-09-27T14:18:56Z</time>
      </trkpt>
      <trkpt lat="45.24232" lon="0.32023">
        <ele>95.022080557828</ele>
        <time>2016-09-27T14:19:10Z</time>
      </trkpt>
      <trkpt lat="45.24248" lon="0.32024">
        <ele>95.021636554655</ele>
        <time>2016-09-27T14:19:24Z</time>
      </trkpt>
      <trkpt lat="45.24262" lon="0.32028">
        <ele>96.021227471686</ele>
        <time>2016-09-27T14:19:38Z</time>
      </trkpt>
      <trkpt lat="45.24278" lon="0.32029">
        <ele>95.020751164695</ele>
        <time>2016-09-27T14:19:52Z</time>
      </trkpt>
      <trkpt lat="45.24294" lon="0.32029">
        <ele>95.020312473876</ele>
        <time>2016-09-27T14:20:07Z</time>
      </trkpt>
      <trkpt lat="45.24309" lon="0.32027">
        <ele>97.019870050755</ele>
        <time>2016-09-27T14:20:21Z</time>
      </trkpt>
      <trkpt lat="45.24324" lon="0.32026">
        <ele>99.019441863467</ele>
        <time>2016-09-27T14:20:36Z</time>
      </trkpt>
      <trkpt lat="45.24339" lon="0.32024">
        <ele>99.019016233343</ele>
        <time>2016-09-27T14:20:50Z</time>
      </trkpt>
      <trkpt lat="45.2435" lon="0.3202">
        <ele>109.01871063513</ele>
        <time>2016-09-27T14:21:04Z</time>
      </trkpt>
      <trkpt lat="45.24378" lon="0.32019">
        <ele>102.01790537127</ele>
        <time>2016-09-27T14:21:18Z</time>
      </trkpt>
      <trkpt lat="45.244" lon="0.32014">
        <ele>100.0172775763</ele>
        <time>2016-09-27T14:21:33Z</time>
      </trkpt>
      <trkpt lat="45.24417" lon="0.32007">
        <ele>98.016784921566</ele>
        <time>2016-09-27T14:21:47Z</time>
      </trkpt>
      <trkpt lat="45.24432" lon="0.31998">
        <ele>98.016354829585</ele>
        <time>2016-09-27T14:22:01Z</time>
      </trkpt>
      <trkpt lat="45.24446" lon="0.31983">
        <ele>98.015977450332</ele>
        <time>2016-09-27T14:22:15Z</time>
      </trkpt>
      <trkpt lat="45.24461" lon="0.31976">
        <ele>99.015549902278</ele>
        <time>2016-09-27T14:22:29Z</time>
      </trkpt>
      <trkpt lat="45.24476" lon="0.31972">
        <ele>100.01512890975</ele>
        <time>2016-09-27T14:22:43Z</time>
      </trkpt>
      <trkpt lat="45.2449" lon="0.31963">
        <ele>99.014723726484</ele>
        <time>2016-09-27T14:22:58Z</time>
      </trkpt>
      <trkpt lat="45.24507" lon="0.31953">
        <ele>99.014245813334</ele>
        <time>2016-09-27T14:23:12Z</time>
      </trkpt>
      <trkpt lat="45.24524" lon="0.31932">
        <ele>96.01375797401</ele>
        <time>2016-09-27T14:23:26Z</time>
      </trkpt>
      <trkpt lat="45.2454" lon="0.3192">
        <ele>97.01330566219</ele>
        <time>2016-09-27T14:23:41Z</time>
      </trkpt>
      <trkpt lat="45.24554" lon="0.31906">
        <ele>97.012912394526</ele>
        <time>2016-09-27T14:23:55Z</time>
      </trkpt>
      <trkpt lat="45.24573" lon="0.31888">
        <ele>93.01237217968</ele>
        <time>2016-09-27T14:24:10Z</time>
      </trkpt>
      <trkpt lat="45.24589" lon="0.31868">
        <ele>89.011931669342</ele>
        <time>2016-09-27T14:24:25Z</time>
      </trkpt>
      <trkpt lat="45.24601" lon="0.3185">
        <ele>87.011574442377</ele>
        <time>2016-09-27T14:24:39Z</time>
      </trkpt>
      <trkpt lat="45.24615" lon="0.31837">
        <ele>89.011187589934</ele>
        <time>2016-09-27T14:24:54Z</time>
      </trkpt>
      <trkpt lat="45.24627" lon="0.31821">
        <ele>88.010864331614</ele>
        <time>2016-09-27T14:25:08Z</time>
      </trkpt>
      <trkpt lat="45.24643" lon="0.31806">
        <ele>87.010395316667</ele>
        <time>2016-09-27T14:25:22Z</time>
      </trkpt>
      <trkpt lat="45.24658" lon="0.31787">
        <ele>87.009978809404</ele>
        <time>2016-09-27T14:25:37Z</time>
      </trkpt>
      <trkpt lat="45.24664" lon="0.31765">
        <ele>86.009817286707</ele>
        <time>2016-09-27T14:25:52Z</time>
      </trkpt>
      <trkpt lat="45.24678" lon="0.31754">
        <ele>85.00939032299</ele>
        <time>2016-09-27T14:26:06Z</time>
      </trkpt>
      <trkpt lat="45.24694" lon="0.31751">
        <ele>86.008935958024</ele>
        <time>2016-09-27T14:26:21Z</time>
      </trkpt>
      <trkpt lat="45.24707" lon="0.31738">
        <ele>89.008563308511</ele>
        <time>2016-09-27T14:26:35Z</time>
      </trkpt>
      <trkpt lat="45.24723" lon="0.3172">
        <ele>89.00810682806</ele>
        <time>2016-09-27T14:26:49Z</time>
      </trkpt>
      <trkpt lat="45.24737" lon="0.31702">
        <ele>87.007710281144</ele>
        <time>2016-09-27T14:27:03Z</time>
      </trkpt>
      <trkpt lat="45.2475" lon="0.31684">
        <ele>85.007335937806</ele>
        <time>2016-09-27T14:27:17Z</time>
      </trkpt>
      <trkpt lat="45.24764" lon="0.3167">
        <ele>87.006934895501</ele>
        <time>2016-09-27T14:27:31Z</time>
      </trkpt>
      <trkpt lat="45.24782" lon="0.31654">
        <ele>85.006406726241</ele>
        <time>2016-09-27T14:27:46Z</time>
      </trkpt>
      <trkpt lat="45.24796" lon="0.31642">
        <ele>85.005981219052</ele>
        <time>2016-09-27T14:28:00Z</time>
      </trkpt>
      <trkpt lat="45.24813" lon="0.31631">
        <ele>84.005502516414</ele>
        <time>2016-09-27T14:28:15Z</time>
      </trkpt>
      <trkpt lat="45.2483" lon="0.31619">
        <ele>84.004990507867</ele>
        <time>2016-09-27T14:28:30Z</time>
      </trkpt>
      <trkpt lat="45.24847" lon="0.31609">
        <ele>84.004514976419</ele>
        <time>2016-09-27T14:28:44Z</time>
      </trkpt>
      <trkpt lat="45.24865" lon="0.31598">
        <ele>82.003978712194</ele>
        <time>2016-09-27T14:28:59Z</time>
      </trkpt>
      <trkpt lat="45.24882" lon="0.31592">
        <ele>82.003467940282</ele>
        <time>2016-09-27T14:29:13Z</time>
      </trkpt>
      <trkpt lat="45.24898" lon="0.31588">
        <ele>82.00299467398</ele>
        <time>2016-09-27T14:29:27Z</time>
      </trkpt>
      <trkpt lat="45.24918" lon="0.31582">
        <ele>81.002428589602</ele>
        <time>2016-09-27T14:29:42Z</time>
      </trkpt>
      <trkpt lat="45.24939" lon="0.31578">
        <ele>78.001809358626</ele>
        <time>2016-09-27T14:29:57Z</time>
      </trkpt>
      <trkpt lat="45.24957" lon="0.31574">
        <ele>76.001266296982</ele>
        <time>2016-09-27T14:30:11Z</time>
      </trkpt>
      <trkpt lat="45.24973" lon="0.31574">
        <ele>77.000811722179</ele>
        <time>2016-09-27T14:30:25Z</time>
      </trkpt>
      <trkpt lat="45.24989" lon="0.31574">
        <ele>79.000326561994</ele>
        <time>2016-09-27T14:30:39Z</time>
      </trkpt>
      <trkpt lat="45.25008" lon="0.31576">
        <ele>78</ele>
        <time>2016-09-27T14:30:54Z</time>
      </trkpt>
      <trkpt lat="45.25026" lon="0.31581">
        <ele>77</ele>
        <time>2016-09-27T14:31:08Z</time>
      </trkpt>
      <trkpt lat="45.25044" lon="0.31585">
        <ele>78</ele>
        <time>2016-09-27T14:31:23Z</time>
      </trkpt>
      <trkpt lat="45.25056" lon="0.31592">
        <ele>81</ele>
        <time>2016-09-27T14:31:37Z</time>
      </trkpt>
      <trkpt lat="45.25073" lon="0.31592">
        <ele>80</ele>
        <time>2016-09-27T14:31:51Z</time>
      </trkpt>
      <trkpt lat="45.25091" lon="0.31598">
        <ele>86</ele>
        <time>2016-09-27T14:32:06Z</time>
      </trkpt>
      <trkpt lat="45.25103" lon="0.31599">
        <ele>92</ele>
        <time>2016-09-27T14:32:20Z</time>
      </trkpt>
      <trkpt lat="45.25124" lon="0.31616">
        <ele>87</ele>
        <time>2016-09-27T14:32:35Z</time>
      </trkpt>
      <trkpt lat="45.25139" lon="0.31626">
        <ele>90</ele>
        <time>2016-09-27T14:32:49Z</time>
      </trkpt>
      <trkpt lat="45.25158" lon="0.31637">
        <ele>91</ele>
        <time>2016-09-27T14:33:04Z</time>
      </trkpt>
      <trkpt lat="45.25172" lon="0.3165">
        <ele>89</ele>
        <time>2016-09-27T14:33:18Z</time>
      </trkpt>
      <trkpt lat="45.25187" lon="0.31663">
        <ele>87</ele>
        <time>2016-09-27T14:33:33Z</time>
      </trkpt>
      <trkpt lat="45.25202" lon="0.31681">
        <ele>87</ele>
        <time>2016-09-27T14:33:48Z</time>
      </trkpt>
      <trkpt lat="45.25219" lon="0.31694">
        <ele>87</ele>
        <time>2016-09-27T14:34:02Z</time>
      </trkpt>
      <trkpt lat="45.25237" lon="0.31693">
        <ele>87</ele>
        <time>2016-09-27T14:34:17Z</time>
      </trkpt>
      <trkpt lat="45.25257" lon="0.31691">
        <ele>76</ele>
        <time>2016-09-27T14:34:32Z</time>
      </trkpt>
      <trkpt lat="45.25274" lon="0.31692">
        <ele>73</ele>
        <time>2016-09-27T14:34:46Z</time>
      </trkpt>
      <trkpt lat="45.25294" lon="0.31688">
        <ele>66</ele>
        <time>2016-09-27T14:35:01Z</time>
      </trkpt>
      <trkpt lat="45.25307" lon="0.31681">
        <ele>65</ele>
        <time>2016-09-27T14:35:15Z</time>
      </trkpt>
      <trkpt lat="45.25314" lon="0.31687">
        <ele>65</ele>
        <time>2016-09-27T14:37:12Z</time>
      </trkpt>
      <trkpt lat="45.25322" lon="0.31702">
        <ele>67</ele>
        <time>2016-09-27T14:37:26Z</time>
      </trkpt>
      <trkpt lat="45.25331" lon="0.31721">
        <ele>69</ele>
        <time>2016-09-27T14:37:40Z</time>
      </trkpt>
      <trkpt lat="45.25339" lon="0.31739">
        <ele>73</ele>
        <time>2016-09-27T14:37:54Z</time>
      </trkpt>
      <trkpt lat="45.25346" lon="0.31761">
        <ele>75</ele>
        <time>2016-09-27T14:38:09Z</time>
      </trkpt>
      <trkpt lat="45.25353" lon="0.31785">
        <ele>76</ele>
        <time>2016-09-27T14:38:23Z</time>
      </trkpt>
      <trkpt lat="45.25355" lon="0.31809">
        <ele>76</ele>
        <time>2016-09-27T14:38:37Z</time>
      </trkpt>
      <trkpt lat="45.25352" lon="0.3183">
        <ele>77</ele>
        <time>2016-09-27T14:38:51Z</time>
      </trkpt>
      <trkpt lat="45.25342" lon="0.3185">
        <ele>79</ele>
        <time>2016-09-27T14:39:06Z</time>
      </trkpt>
      <trkpt lat="45.25332" lon="0.31868">
        <ele>78</ele>
        <time>2016-09-27T14:39:20Z</time>
      </trkpt>
      <trkpt lat="45.2533" lon="0.31882">
        <ele>76</ele>
        <time>2016-09-27T14:39:35Z</time>
      </trkpt>
      <trkpt lat="45.25341" lon="0.31898">
        <ele>78</ele>
        <time>2016-09-27T14:39:49Z</time>
      </trkpt>
      <trkpt lat="45.25341" lon="0.3192">
        <ele>79</ele>
        <time>2016-09-27T14:40:04Z</time>
      </trkpt>
      <trkpt lat="45.25334" lon="0.3194">
        <ele>79</ele>
        <time>2016-09-27T14:40:18Z</time>
      </trkpt>
      <trkpt lat="45.25326" lon="0.31957">
        <ele>84</ele>
        <time>2016-09-27T14:40:32Z</time>
      </trkpt>
      <trkpt lat="45.25321" lon="0.3198">
        <ele>82</ele>
        <time>2016-09-27T14:40:47Z</time>
      </trkpt>
      <trkpt lat="45.25314" lon="0.32001">
        <ele>84</ele>
        <time>2016-09-27T14:41:01Z</time>
      </trkpt>
      <trkpt lat="45.25307" lon="0.3202">
        <ele>86</ele>
        <time>2016-09-27T14:41:16Z</time>
      </trkpt>
      <trkpt lat="45.25294" lon="0.32035">
        <ele>86</ele>
        <time>2016-09-27T14:41:30Z</time>
      </trkpt>
      <trkpt lat="45.25278" lon="0.32045">
        <ele>85</ele>
        <time>2016-09-27T14:41:45Z</time>
      </trkpt>
      <trkpt lat="45.25267" lon="0.32045">
        <ele>87</ele>
        <time>2016-09-27T14:41:59Z</time>
      </trkpt>
      <trkpt lat="45.25265" lon="0.32061">
        <ele>87</ele>
        <time>2016-09-27T14:42:14Z</time>
      </trkpt>
      <trkpt lat="45.2527" lon="0.32074">
        <ele>89</ele>
        <time>2016-09-27T14:42:28Z</time>
      </trkpt>
      <trkpt lat="45.25273" lon="0.32092">
        <ele>87</ele>
        <time>2016-09-27T14:42:42Z</time>
      </trkpt>
      <trkpt lat="45.25264" lon="0.32092">
        <ele>96</ele>
        <time>2016-09-27T14:43:06Z</time>
      </trkpt>
      <trkpt lat="45.25251" lon="0.32101">
        <ele>96</ele>
        <time>2016-09-27T14:43:20Z</time>
      </trkpt>
      <trkpt lat="45.25242" lon="0.32115">
        <ele>94</ele>
        <time>2016-09-27T14:43:34Z</time>
      </trkpt>
      <trkpt lat="45.25228" lon="0.32129">
        <ele>91</ele>
        <time>2016-09-27T14:43:48Z</time>
      </trkpt>
      <trkpt lat="45.25219" lon="0.32144">
        <ele>91</ele>
        <time>2016-09-27T14:44:02Z</time>
      </trkpt>
      <trkpt lat="45.25206" lon="0.3216">
        <ele>93</ele>
        <time>2016-09-27T14:44:17Z</time>
      </trkpt>
      <trkpt lat="45.25198" lon="0.32186">
        <ele>94</ele>
        <time>2016-09-27T14:44:32Z</time>
      </trkpt>
      <trkpt lat="45.25188" lon="0.32202">
        <ele>94</ele>
        <time>2016-09-27T14:44:46Z</time>
      </trkpt>
      <trkpt lat="45.25182" lon="0.32225">
        <ele>93</ele>
        <time>2016-09-27T14:45:00Z</time>
      </trkpt>
      <trkpt lat="45.25176" lon="0.3225">
        <ele>93</ele>
        <time>2016-09-27T14:45:15Z</time>
      </trkpt>
      <trkpt lat="45.25169" lon="0.32272">
        <ele>92</ele>
        <time>2016-09-27T14:45:29Z</time>
      </trkpt>
      <trkpt lat="45.25164" lon="0.32296">
        <ele>93</ele>
        <time>2016-09-27T14:45:43Z</time>
      </trkpt>
      <trkpt lat="45.25154" lon="0.3231">
        <ele>92</ele>
        <time>2016-09-27T14:45:57Z</time>
      </trkpt>
      <trkpt lat="45.25145" lon="0.3233">
        <ele>94</ele>
        <time>2016-09-27T14:46:12Z</time>
      </trkpt>
      <trkpt lat="45.25135" lon="0.32342">
        <ele>94</ele>
        <time>2016-09-27T14:46:26Z</time>
      </trkpt>
      <trkpt lat="45.25119" lon="0.32351">
        <ele>89</ele>
        <time>2016-09-27T14:46:40Z</time>
      </trkpt>
      <trkpt lat="45.25104" lon="0.32364">
        <ele>86</ele>
        <time>2016-09-27T14:46:55Z</time>
      </trkpt>
      <trkpt lat="45.25089" lon="0.32377">
        <ele>87</ele>
        <time>2016-09-27T14:47:10Z</time>
      </trkpt>
      <trkpt lat="45.25079" lon="0.32396">
        <ele>89</ele>
        <time>2016-09-27T14:47:25Z</time>
      </trkpt>
      <trkpt lat="45.25076" lon="0.32423">
        <ele>85</ele>
        <time>2016-09-27T14:47:40Z</time>
      </trkpt>
      <trkpt lat="45.25081" lon="0.32448">
        <ele>85</ele>
        <time>2016-09-27T14:47:55Z</time>
      </trkpt>
      <trkpt lat="45.25089" lon="0.32465">
        <ele>90</ele>
        <time>2016-09-27T14:48:10Z</time>
      </trkpt>
      <trkpt lat="45.25101" lon="0.32482">
        <ele>90</ele>
        <time>2016-09-27T14:48:24Z</time>
      </trkpt>
      <trkpt lat="45.25107" lon="0.32492">
        <ele>87</ele>
        <time>2016-09-27T14:48:43Z</time>
      </trkpt>
      <trkpt lat="45.25103" lon="0.32509">
        <ele>88</ele>
        <time>2016-09-27T14:48:58Z</time>
      </trkpt>
      <trkpt lat="45.25098" lon="0.32528">
        <ele>90</ele>
        <time>2016-09-27T14:49:12Z</time>
      </trkpt>
      <trkpt lat="45.25094" lon="0.32548">
        <ele>92</ele>
        <time>2016-09-27T14:49:27Z</time>
      </trkpt>
      <trkpt lat="45.25091" lon="0.32568">
        <ele>95</ele>
        <time>2016-09-27T14:49:41Z</time>
      </trkpt>
      <trkpt lat="45.25084" lon="0.32587">
        <ele>95</ele>
        <time>2016-09-27T14:49:55Z</time>
      </trkpt>
      <trkpt lat="45.25078" lon="0.32606">
        <ele>99</ele>
        <time>2016-09-27T14:50:10Z</time>
      </trkpt>
      <trkpt lat="45.25071" lon="0.32627">
        <ele>103</ele>
        <time>2016-09-27T14:50:24Z</time>
      </trkpt>
      <trkpt lat="45.25062" lon="0.32648">
        <ele>105</ele>
        <time>2016-09-27T14:50:38Z</time>
      </trkpt>
      <trkpt lat="45.25055" lon="0.3267">
        <ele>104</ele>
        <time>2016-09-27T14:50:52Z</time>
      </trkpt>
      <trkpt lat="45.25046" lon="0.32688">
        <ele>107</ele>
        <time>2016-09-27T14:51:06Z</time>
      </trkpt>
      <trkpt lat="45.25039" lon="0.3271">
        <ele>106</ele>
        <time>2016-09-27T14:51:20Z</time>
      </trkpt>
      <trkpt lat="45.25037" lon="0.32731">
        <ele>105</ele>
        <time>2016-09-27T14:51:35Z</time>
      </trkpt>
      <trkpt lat="45.25034" lon="0.32756">
        <ele>108</ele>
        <time>2016-09-27T14:51:49Z</time>
      </trkpt>
      <trkpt lat="45.25032" lon="0.32782">
        <ele>111</ele>
        <time>2016-09-27T14:52:04Z</time>
      </trkpt>
      <trkpt lat="45.25029" lon="0.32811">
        <ele>111</ele>
        <time>2016-09-27T14:52:18Z</time>
      </trkpt>
      <trkpt lat="45.25023" lon="0.3283">
        <ele>111</ele>
        <time>2016-09-27T14:52:32Z</time>
      </trkpt>
      <trkpt lat="45.25016" lon="0.32855">
        <ele>111</ele>
        <time>2016-09-27T14:52:46Z</time>
      </trkpt>
      <trkpt lat="45.25013" lon="0.32882">
        <ele>111</ele>
        <time>2016-09-27T14:53:00Z</time>
      </trkpt>
      <trkpt lat="45.25011" lon="0.32908">
        <ele>112</ele>
        <time>2016-09-27T14:53:14Z</time>
      </trkpt>
      <trkpt lat="45.25009" lon="0.32932">
        <ele>114</ele>
        <time>2016-09-27T14:53:28Z</time>
      </trkpt>
      <trkpt lat="45.25005" lon="0.32955">
        <ele>115</ele>
        <time>2016-09-27T14:53:42Z</time>
      </trkpt>
      <trkpt lat="45.25003" lon="0.32975">
        <ele>114</ele>
        <time>2016-09-27T14:53:56Z</time>
      </trkpt>
      <trkpt lat="45.25002" lon="0.33002">
        <ele>114</ele>
        <time>2016-09-27T14:54:10Z</time>
      </trkpt>
      <trkpt lat="45.25" lon="0.33027">
        <ele>113.00000567585</ele>
        <time>2016-09-27T14:54:24Z</time>
      </trkpt>
      <trkpt lat="45.24998" lon="0.3305">
        <ele>111.00004705425</ele>
        <time>2016-09-27T14:54:38Z</time>
      </trkpt>
      <trkpt lat="45.24995" lon="0.33069">
        <ele>110.00012713465</ele>
        <time>2016-09-27T14:54:52Z</time>
      </trkpt>
      <trkpt lat="45.24998" lon="0.33095">
        <ele>109.00004933639</ele>
        <time>2016-09-27T14:55:07Z</time>
      </trkpt>
      <trkpt lat="45.25004" lon="0.33112">
        <ele>112</ele>
        <time>2016-09-27T14:55:21Z</time>
      </trkpt>
      <trkpt lat="45.25017" lon="0.33138">
        <ele>107</ele>
        <time>2016-09-27T14:55:36Z</time>
      </trkpt>
      <trkpt lat="45.25028" lon="0.3316">
        <ele>109</ele>
        <time>2016-09-27T14:55:51Z</time>
      </trkpt>
      <trkpt lat="45.25035" lon="0.33179">
        <ele>108</ele>
        <time>2016-09-27T14:56:05Z</time>
      </trkpt>
      <trkpt lat="45.25036" lon="0.33196">
        <ele>106</ele>
        <time>2016-09-27T14:56:19Z</time>
      </trkpt>
      <trkpt lat="45.25035" lon="0.33221">
        <ele>107</ele>
        <time>2016-09-27T14:56:33Z</time>
      </trkpt>
      <trkpt lat="45.2504" lon="0.33246">
        <ele>104</ele>
        <time>2016-09-27T14:56:47Z</time>
      </trkpt>
      <trkpt lat="45.25031" lon="0.33261">
        <ele>96</ele>
        <time>2016-09-27T14:57:01Z</time>
      </trkpt>
      <trkpt lat="45.25027" lon="0.33274">
        <ele>102</ele>
        <time>2016-09-27T14:57:16Z</time>
      </trkpt>
      <trkpt lat="45.25026" lon="0.33302">
        <ele>98</ele>
        <time>2016-09-27T14:57:30Z</time>
      </trkpt>
      <trkpt lat="45.25022" lon="0.33324">
        <ele>93</ele>
        <time>2016-09-27T14:57:44Z</time>
      </trkpt>
      <trkpt lat="45.25016" lon="0.33345">
        <ele>93</ele>
        <time>2016-09-27T14:57:59Z</time>
      </trkpt>
      <trkpt lat="45.25007" lon="0.33359">
        <ele>92</ele>
        <time>2016-09-27T14:58:13Z</time>
      </trkpt>
      <trkpt lat="45.25" lon="0.33381">
        <ele>90</ele>
        <time>2016-09-27T14:58:27Z</time>
      </trkpt>
      <trkpt lat="45.24993" lon="0.33402">
        <ele>87.00019856188</ele>
        <time>2016-09-27T14:58:41Z</time>
      </trkpt>
      <trkpt lat="45.24989" lon="0.3343">
        <ele>86.000283599668</ele>
        <time>2016-09-27T14:58:56Z</time>
      </trkpt>
      <trkpt lat="45.24983" lon="0.33449">
        <ele>87.000446072876</ele>
        <time>2016-09-27T14:59:11Z</time>
      </trkpt>
      <trkpt lat="45.24978" lon="0.3347">
        <ele>90.000571400363</ele>
        <time>2016-09-27T14:59:26Z</time>
      </trkpt>
      <trkpt lat="45.24964" lon="0.33487">
        <ele>85.000958109365</ele>
        <time>2016-09-27T14:59:40Z</time>
      </trkpt>
      <trkpt lat="45.24955" lon="0.33503">
        <ele>81.001181507744</ele>
        <time>2016-09-27T14:59:55Z</time>
      </trkpt>
      <trkpt lat="45.24953" lon="0.33527">
        <ele>83.001234941673</ele>
        <time>2016-09-27T15:00:09Z</time>
      </trkpt>
      <trkpt lat="45.24938" lon="0.33543">
        <ele>76.001635558021</ele>
        <time>2016-09-27T15:00:23Z</time>
      </trkpt>
      <trkpt lat="45.24933" lon="0.33564">
        <ele>80.00176467211</ele>
        <time>2016-09-27T15:00:38Z</time>
      </trkpt>
      <trkpt lat="45.24933" lon="0.3359">
        <ele>84.001762700903</ele>
        <time>2016-09-27T15:00:52Z</time>
      </trkpt>
      <trkpt lat="45.24927" lon="0.33611">
        <ele>82.001908723506</ele>
        <time>2016-09-27T15:01:06Z</time>
      </trkpt>
      <trkpt lat="45.24921" lon="0.33629">
        <ele>82.002070219613</ele>
        <time>2016-09-27T15:01:20Z</time>
      </trkpt>
      <trkpt lat="45.24912" lon="0.33656">
        <ele>80.002315302755</ele>
        <time>2016-09-27T15:01:35Z</time>
      </trkpt>
      <trkpt lat="45.24893" lon="0.33671">
        <ele>71.002807992973</ele>
        <time>2016-09-27T15:01:49Z</time>
      </trkpt>
      <trkpt lat="45.24888" lon="0.33689">
        <ele>72.002916624725</ele>
        <time>2016-09-27T15:02:03Z</time>
      </trkpt>
      <trkpt lat="45.24878" lon="0.33709">
        <ele>69.00318094088</ele>
        <time>2016-09-27T15:02:17Z</time>
      </trkpt>
      <trkpt lat="45.24869" lon="0.33722">
        <ele>73.003407038163</ele>
        <time>2016-09-27T15:02:32Z</time>
      </trkpt>
      <trkpt lat="45.24861" lon="0.33736">
        <ele>77.003629860112</ele>
        <time>2016-09-27T15:02:46Z</time>
      </trkpt>
      <trkpt lat="45.2485" lon="0.33744">
        <ele>75.003891658081</ele>
        <time>2016-09-27T15:03:00Z</time>
      </trkpt>
      <trkpt lat="45.24847" lon="0.33755">
        <ele>69.00397532265</ele>
        <time>2016-09-27T15:03:29Z</time>
      </trkpt>
      <trkpt lat="45.24847" lon="0.33755">
        <ele>69.00397532265</ele>
        <time>2016-09-27T15:03:29Z</time>
      </trkpt>
    </trkseg>
  </trk>
</gpx>